<?xml version="1.0" encoding="UTF-8" standalone="no" ?>
<gpx xmlns="http://www.topografix.com/GPX/1/1" xmlns:xsi="http://www.w3.org/2001/XMLSchema-instance" xsi:schemaLocation="http://www.topografix.com/GPX/1/1 http://www.topografix.com/GPX/1/1/gpx.xsd" version="1.1" creator="VisuGPX - https://www.visugpx.com">
  <metadata>
    <name>Cumul Sorties vélo avec Robin</name>
  </metadata>
  <trk>
    <name><![CDATA[Toulouse Cyclisme sur route]]></name>
    <extensions>
      <line xmlns="http://www.topografix.com/GPX/gpx_style/0/2">
        <color>ff8000</color>
        <width>4</width>
      </line>
    </extensions>
    <trkseg>
      <trkpt lat="43.54337" lon="1.45824">
        <ele>227.19999694824</ele>
        <time>2020-06-03T06:49:00.000Z</time>
      </trkpt>
      <trkpt lat="43.54337" lon="1.45824">
        <ele>227.19999694824</ele>
        <time>2020-06-03T06:49:00.000Z</time>
      </trkpt>
      <trkpt lat="43.54343" lon="1.45847">
        <ele>226.19999694824</ele>
        <time>2020-06-03T06:49:07.000Z</time>
      </trkpt>
      <trkpt lat="43.54348" lon="1.45861">
        <ele>225.39999389648</ele>
        <time>2020-06-03T06:49:10.000Z</time>
      </trkpt>
      <trkpt lat="43.54349" lon="1.45867">
        <ele>225</ele>
        <time>2020-06-03T06:49:11.000Z</time>
      </trkpt>
      <trkpt lat="43.54349" lon="1.45888">
        <ele>224</ele>
        <time>2020-06-03T06:49:14.000Z</time>
      </trkpt>
      <trkpt lat="43.54349" lon="1.45895">
        <ele>223.80000305176</ele>
        <time>2020-06-03T06:49:15.000Z</time>
      </trkpt>
      <trkpt lat="43.54357" lon="1.45922">
        <ele>224.80000305176</ele>
        <time>2020-06-03T06:49:19.000Z</time>
      </trkpt>
      <trkpt lat="43.54368" lon="1.45952">
        <ele>223.80000305176</ele>
        <time>2020-06-03T06:49:24.000Z</time>
      </trkpt>
      <trkpt lat="43.54385" lon="1.45971">
        <ele>223.60000610352</ele>
        <time>2020-06-03T06:49:30.000Z</time>
      </trkpt>
      <trkpt lat="43.54406" lon="1.45937">
        <ele>225.19999694824</ele>
        <time>2020-06-03T06:49:43.000Z</time>
      </trkpt>
      <trkpt lat="43.54409" lon="1.4592">
        <ele>226.39999389648</ele>
        <time>2020-06-03T06:49:48.000Z</time>
      </trkpt>
      <trkpt lat="43.54408" lon="1.45897">
        <ele>227.39999389648</ele>
        <time>2020-06-03T06:49:54.000Z</time>
      </trkpt>
      <trkpt lat="43.54401" lon="1.45836">
        <ele>228.39999389648</ele>
        <time>2020-06-03T06:50:09.000Z</time>
      </trkpt>
      <trkpt lat="43.54396" lon="1.45779">
        <ele>228.80000305176</ele>
        <time>2020-06-03T06:50:22.000Z</time>
      </trkpt>
      <trkpt lat="43.54404" lon="1.45723">
        <ele>229.60000610352</ele>
        <time>2020-06-03T06:50:36.000Z</time>
      </trkpt>
      <trkpt lat="43.54415" lon="1.457">
        <ele>231</ele>
        <time>2020-06-03T06:50:44.000Z</time>
      </trkpt>
      <trkpt lat="43.54423" lon="1.4569">
        <ele>232</ele>
        <time>2020-06-03T06:50:49.000Z</time>
      </trkpt>
      <trkpt lat="43.54438" lon="1.45675">
        <ele>233.19999694824</ele>
        <time>2020-06-03T06:50:57.000Z</time>
      </trkpt>
      <trkpt lat="43.54447" lon="1.45604">
        <ele>234</ele>
        <time>2020-06-03T06:51:16.000Z</time>
      </trkpt>
      <trkpt lat="43.54445" lon="1.45583">
        <ele>234</ele>
        <time>2020-06-03T06:51:21.000Z</time>
      </trkpt>
      <trkpt lat="43.54422" lon="1.45592">
        <ele>233.80000305176</ele>
        <time>2020-06-03T06:51:28.000Z</time>
      </trkpt>
      <trkpt lat="43.54416" lon="1.45603">
        <ele>233.80000305176</ele>
        <time>2020-06-03T06:51:30.000Z</time>
      </trkpt>
      <trkpt lat="43.54384" lon="1.45649">
        <ele>232.60000610352</ele>
        <time>2020-06-03T06:51:38.000Z</time>
      </trkpt>
      <trkpt lat="43.5438" lon="1.45656">
        <ele>232</ele>
        <time>2020-06-03T06:51:39.000Z</time>
      </trkpt>
      <trkpt lat="43.54364" lon="1.4568">
        <ele>231</ele>
        <time>2020-06-03T06:51:43.000Z</time>
      </trkpt>
      <trkpt lat="43.5434" lon="1.45718">
        <ele>230</ele>
        <time>2020-06-03T06:51:49.000Z</time>
      </trkpt>
      <trkpt lat="43.54301" lon="1.45779">
        <ele>229</ele>
        <time>2020-06-03T06:51:59.000Z</time>
      </trkpt>
      <trkpt lat="43.54263" lon="1.45838">
        <ele>228.60000610352</ele>
        <time>2020-06-03T06:52:10.000Z</time>
      </trkpt>
      <trkpt lat="43.54229" lon="1.45897">
        <ele>229.39999389648</ele>
        <time>2020-06-03T06:52:22.000Z</time>
      </trkpt>
      <trkpt lat="43.5422" lon="1.45918">
        <ele>230.60000610352</ele>
        <time>2020-06-03T06:52:26.000Z</time>
      </trkpt>
      <trkpt lat="43.54211" lon="1.4594">
        <ele>231</ele>
        <time>2020-06-03T06:52:30.000Z</time>
      </trkpt>
      <trkpt lat="43.54204" lon="1.45964">
        <ele>231.60000610352</ele>
        <time>2020-06-03T06:52:34.000Z</time>
      </trkpt>
      <trkpt lat="43.54199" lon="1.45981">
        <ele>231.80000305176</ele>
        <time>2020-06-03T06:52:37.000Z</time>
      </trkpt>
      <trkpt lat="43.54191" lon="1.45996">
        <ele>231.80000305176</ele>
        <time>2020-06-03T06:52:40.000Z</time>
      </trkpt>
      <trkpt lat="43.54184" lon="1.46011">
        <ele>232</ele>
        <time>2020-06-03T06:52:43.000Z</time>
      </trkpt>
      <trkpt lat="43.54174" lon="1.46031">
        <ele>232</ele>
        <time>2020-06-03T06:52:47.000Z</time>
      </trkpt>
      <trkpt lat="43.54161" lon="1.46066">
        <ele>232</ele>
        <time>2020-06-03T06:52:53.000Z</time>
      </trkpt>
      <trkpt lat="43.5413" lon="1.46127">
        <ele>231</ele>
        <time>2020-06-03T06:53:03.000Z</time>
      </trkpt>
      <trkpt lat="43.54127" lon="1.46134">
        <ele>230.60000610352</ele>
        <time>2020-06-03T06:53:04.000Z</time>
      </trkpt>
      <trkpt lat="43.54109" lon="1.4617">
        <ele>229.39999389648</ele>
        <time>2020-06-03T06:53:09.000Z</time>
      </trkpt>
      <trkpt lat="43.54093" lon="1.46199">
        <ele>228.60000610352</ele>
        <time>2020-06-03T06:53:13.000Z</time>
      </trkpt>
      <trkpt lat="43.54085" lon="1.46214">
        <ele>228</ele>
        <time>2020-06-03T06:53:15.000Z</time>
      </trkpt>
      <trkpt lat="43.54077" lon="1.46228">
        <ele>227.39999389648</ele>
        <time>2020-06-03T06:53:17.000Z</time>
      </trkpt>
      <trkpt lat="43.54052" lon="1.46268">
        <ele>226.39999389648</ele>
        <time>2020-06-03T06:53:23.000Z</time>
      </trkpt>
      <trkpt lat="43.54048" lon="1.46275">
        <ele>226.19999694824</ele>
        <time>2020-06-03T06:53:24.000Z</time>
      </trkpt>
      <trkpt lat="43.54026" lon="1.46294">
        <ele>225.60000610352</ele>
        <time>2020-06-03T06:53:28.000Z</time>
      </trkpt>
      <trkpt lat="43.54021" lon="1.46299">
        <ele>225.39999389648</ele>
        <time>2020-06-03T06:53:29.000Z</time>
      </trkpt>
      <trkpt lat="43.54002" lon="1.46325">
        <ele>224.19999694824</ele>
        <time>2020-06-03T06:53:33.000Z</time>
      </trkpt>
      <trkpt lat="43.53997" lon="1.46331">
        <ele>223.19999694824</ele>
        <time>2020-06-03T06:53:34.000Z</time>
      </trkpt>
      <trkpt lat="43.53979" lon="1.46357">
        <ele>222</ele>
        <time>2020-06-03T06:53:38.000Z</time>
      </trkpt>
      <trkpt lat="43.53971" lon="1.46369">
        <ele>222</ele>
        <time>2020-06-03T06:53:40.000Z</time>
      </trkpt>
      <trkpt lat="43.53962" lon="1.4638">
        <ele>221.39999389648</ele>
        <time>2020-06-03T06:53:42.000Z</time>
      </trkpt>
      <trkpt lat="43.53935" lon="1.4642">
        <ele>221.19999694824</ele>
        <time>2020-06-03T06:53:48.000Z</time>
      </trkpt>
      <trkpt lat="43.53909" lon="1.46468">
        <ele>220.19999694824</ele>
        <time>2020-06-03T06:53:54.000Z</time>
      </trkpt>
      <trkpt lat="43.53877" lon="1.46524">
        <ele>219</ele>
        <time>2020-06-03T06:54:01.000Z</time>
      </trkpt>
      <trkpt lat="43.53869" lon="1.46541">
        <ele>218.39999389648</ele>
        <time>2020-06-03T06:54:03.000Z</time>
      </trkpt>
      <trkpt lat="43.53861" lon="1.46554">
        <ele>217.60000610352</ele>
        <time>2020-06-03T06:54:05.000Z</time>
      </trkpt>
      <trkpt lat="43.5384" lon="1.46589">
        <ele>216.39999389648</ele>
        <time>2020-06-03T06:54:10.000Z</time>
      </trkpt>
      <trkpt lat="43.53821" lon="1.46617">
        <ele>215.19999694824</ele>
        <time>2020-06-03T06:54:14.000Z</time>
      </trkpt>
      <trkpt lat="43.53806" lon="1.46639">
        <ele>214.19999694824</ele>
        <time>2020-06-03T06:54:17.000Z</time>
      </trkpt>
      <trkpt lat="43.5379" lon="1.46661">
        <ele>213.19999694824</ele>
        <time>2020-06-03T06:54:20.000Z</time>
      </trkpt>
      <trkpt lat="43.53785" lon="1.46668">
        <ele>213</ele>
        <time>2020-06-03T06:54:21.000Z</time>
      </trkpt>
      <trkpt lat="43.53752" lon="1.46713">
        <ele>212</ele>
        <time>2020-06-03T06:54:27.000Z</time>
      </trkpt>
      <trkpt lat="43.53722" lon="1.46757">
        <ele>210.80000305176</ele>
        <time>2020-06-03T06:54:33.000Z</time>
      </trkpt>
      <trkpt lat="43.53705" lon="1.4679">
        <ele>209.60000610352</ele>
        <time>2020-06-03T06:54:37.000Z</time>
      </trkpt>
      <trkpt lat="43.53678" lon="1.46834">
        <ele>208.80000305176</ele>
        <time>2020-06-03T06:54:43.000Z</time>
      </trkpt>
      <trkpt lat="43.5366" lon="1.4684">
        <ele>208.60000610352</ele>
        <time>2020-06-03T06:54:46.000Z</time>
      </trkpt>
      <trkpt lat="43.53655" lon="1.4684">
        <ele>208.60000610352</ele>
        <time>2020-06-03T06:54:47.000Z</time>
      </trkpt>
      <trkpt lat="43.53624" lon="1.46835">
        <ele>209</ele>
        <time>2020-06-03T06:54:54.000Z</time>
      </trkpt>
      <trkpt lat="43.53614" lon="1.4683">
        <ele>209.80000305176</ele>
        <time>2020-06-03T06:54:57.000Z</time>
      </trkpt>
      <trkpt lat="43.53604" lon="1.46826">
        <ele>210.60000610352</ele>
        <time>2020-06-03T06:55:00.000Z</time>
      </trkpt>
      <trkpt lat="43.53602" lon="1.46822">
        <ele>211</ele>
        <time>2020-06-03T06:55:01.000Z</time>
      </trkpt>
      <trkpt lat="43.53596" lon="1.46813">
        <ele>212.19999694824</ele>
        <time>2020-06-03T06:55:04.000Z</time>
      </trkpt>
      <trkpt lat="43.53594" lon="1.46811">
        <ele>212.60000610352</ele>
        <time>2020-06-03T06:55:05.000Z</time>
      </trkpt>
      <trkpt lat="43.53589" lon="1.46811">
        <ele>213.19999694824</ele>
        <time>2020-06-03T06:55:07.000Z</time>
      </trkpt>
      <trkpt lat="43.53581" lon="1.46817">
        <ele>214.39999389648</ele>
        <time>2020-06-03T06:55:10.000Z</time>
      </trkpt>
      <trkpt lat="43.53578" lon="1.46829">
        <ele>215</ele>
        <time>2020-06-03T06:55:13.000Z</time>
      </trkpt>
      <trkpt lat="43.53545" lon="1.46888">
        <ele>215</ele>
        <time>2020-06-03T06:55:28.000Z</time>
      </trkpt>
      <trkpt lat="43.5351" lon="1.46947">
        <ele>213.80000305176</ele>
        <time>2020-06-03T06:55:41.000Z</time>
      </trkpt>
      <trkpt lat="43.53498" lon="1.46965">
        <ele>213.60000610352</ele>
        <time>2020-06-03T06:55:45.000Z</time>
      </trkpt>
      <trkpt lat="43.53476" lon="1.46999">
        <ele>213.39999389648</ele>
        <time>2020-06-03T06:55:52.000Z</time>
      </trkpt>
      <trkpt lat="43.53453" lon="1.47007">
        <ele>213.39999389648</ele>
        <time>2020-06-03T06:55:59.000Z</time>
      </trkpt>
      <trkpt lat="43.53449" lon="1.47007">
        <ele>213.39999389648</ele>
        <time>2020-06-03T06:56:01.000Z</time>
      </trkpt>
      <trkpt lat="43.53447" lon="1.47008">
        <ele>213.80000305176</ele>
        <time>2020-06-03T06:56:06.000Z</time>
      </trkpt>
      <trkpt lat="43.5344" lon="1.47022">
        <ele>214.39999389648</ele>
        <time>2020-06-03T06:56:13.000Z</time>
      </trkpt>
      <trkpt lat="43.53445" lon="1.47051">
        <ele>214.60000610352</ele>
        <time>2020-06-03T06:56:20.000Z</time>
      </trkpt>
      <trkpt lat="43.53435" lon="1.47071">
        <ele>214.19999694824</ele>
        <time>2020-06-03T06:56:24.000Z</time>
      </trkpt>
      <trkpt lat="43.53433" lon="1.47076">
        <ele>214</ele>
        <time>2020-06-03T06:56:25.000Z</time>
      </trkpt>
      <trkpt lat="43.53441" lon="1.471">
        <ele>212.80000305176</ele>
        <time>2020-06-03T06:56:30.000Z</time>
      </trkpt>
      <trkpt lat="43.53445" lon="1.47105">
        <ele>212.39999389648</ele>
        <time>2020-06-03T06:56:31.000Z</time>
      </trkpt>
      <trkpt lat="43.53473" lon="1.47141">
        <ele>211.19999694824</ele>
        <time>2020-06-03T06:56:38.000Z</time>
      </trkpt>
      <trkpt lat="43.53477" lon="1.47163">
        <ele>210</ele>
        <time>2020-06-03T06:56:41.000Z</time>
      </trkpt>
      <trkpt lat="43.53474" lon="1.4718">
        <ele>209.19999694824</ele>
        <time>2020-06-03T06:56:43.000Z</time>
      </trkpt>
      <trkpt lat="43.5347" lon="1.47197">
        <ele>209</ele>
        <time>2020-06-03T06:56:45.000Z</time>
      </trkpt>
      <trkpt lat="43.53462" lon="1.47231">
        <ele>207.60000610352</ele>
        <time>2020-06-03T06:56:49.000Z</time>
      </trkpt>
      <trkpt lat="43.53455" lon="1.4726">
        <ele>206.60000610352</ele>
        <time>2020-06-03T06:56:54.000Z</time>
      </trkpt>
      <trkpt lat="43.53464" lon="1.47278">
        <ele>206.39999389648</ele>
        <time>2020-06-03T06:56:58.000Z</time>
      </trkpt>
      <trkpt lat="43.53494" lon="1.47314">
        <ele>205.60000610352</ele>
        <time>2020-06-03T06:57:06.000Z</time>
      </trkpt>
      <trkpt lat="43.53509" lon="1.47334">
        <ele>204.39999389648</ele>
        <time>2020-06-03T06:57:10.000Z</time>
      </trkpt>
      <trkpt lat="43.53516" lon="1.4735">
        <ele>204.39999389648</ele>
        <time>2020-06-03T06:57:14.000Z</time>
      </trkpt>
      <trkpt lat="43.53503" lon="1.47371">
        <ele>204.39999389648</ele>
        <time>2020-06-03T06:57:20.000Z</time>
      </trkpt>
      <trkpt lat="43.53453" lon="1.47404">
        <ele>204.19999694824</ele>
        <time>2020-06-03T06:57:33.000Z</time>
      </trkpt>
      <trkpt lat="43.53402" lon="1.47434">
        <ele>204</ele>
        <time>2020-06-03T06:57:46.000Z</time>
      </trkpt>
      <trkpt lat="43.53355" lon="1.47479">
        <ele>204</ele>
        <time>2020-06-03T06:57:59.000Z</time>
      </trkpt>
      <trkpt lat="43.53311" lon="1.4753">
        <ele>204.19999694824</ele>
        <time>2020-06-03T06:58:11.000Z</time>
      </trkpt>
      <trkpt lat="43.53288" lon="1.4756">
        <ele>203.80000305176</ele>
        <time>2020-06-03T06:58:17.000Z</time>
      </trkpt>
      <trkpt lat="43.5325" lon="1.47614">
        <ele>203</ele>
        <time>2020-06-03T06:58:27.000Z</time>
      </trkpt>
      <trkpt lat="43.53242" lon="1.47625">
        <ele>202.80000305176</ele>
        <time>2020-06-03T06:58:29.000Z</time>
      </trkpt>
      <trkpt lat="43.53201" lon="1.47683">
        <ele>202</ele>
        <time>2020-06-03T06:58:40.000Z</time>
      </trkpt>
      <trkpt lat="43.53191" lon="1.47696">
        <ele>202</ele>
        <time>2020-06-03T06:58:43.000Z</time>
      </trkpt>
      <trkpt lat="43.53183" lon="1.47702">
        <ele>202</ele>
        <time>2020-06-03T06:58:45.000Z</time>
      </trkpt>
      <trkpt lat="43.53168" lon="1.47705">
        <ele>201.60000610352</ele>
        <time>2020-06-03T06:58:48.000Z</time>
      </trkpt>
      <trkpt lat="43.53113" lon="1.47701">
        <ele>200.80000305176</ele>
        <time>2020-06-03T06:59:00.000Z</time>
      </trkpt>
      <trkpt lat="43.53057" lon="1.47696">
        <ele>201.19999694824</ele>
        <time>2020-06-03T06:59:12.000Z</time>
      </trkpt>
      <trkpt lat="43.53005" lon="1.47668">
        <ele>202</ele>
        <time>2020-06-03T06:59:26.000Z</time>
      </trkpt>
      <trkpt lat="43.52993" lon="1.47658">
        <ele>203</ele>
        <time>2020-06-03T06:59:30.000Z</time>
      </trkpt>
      <trkpt lat="43.52976" lon="1.47643">
        <ele>204.19999694824</ele>
        <time>2020-06-03T06:59:36.000Z</time>
      </trkpt>
      <trkpt lat="43.52966" lon="1.47634">
        <ele>205.60000610352</ele>
        <time>2020-06-03T06:59:40.000Z</time>
      </trkpt>
      <trkpt lat="43.52954" lon="1.47623">
        <ele>206.80000305176</ele>
        <time>2020-06-03T06:59:45.000Z</time>
      </trkpt>
      <trkpt lat="43.52945" lon="1.47613">
        <ele>208</ele>
        <time>2020-06-03T06:59:49.000Z</time>
      </trkpt>
      <trkpt lat="43.52937" lon="1.47603">
        <ele>209</ele>
        <time>2020-06-03T06:59:53.000Z</time>
      </trkpt>
      <trkpt lat="43.5293" lon="1.47592">
        <ele>210.19999694824</ele>
        <time>2020-06-03T06:59:57.000Z</time>
      </trkpt>
      <trkpt lat="43.52924" lon="1.47584">
        <ele>211.19999694824</ele>
        <time>2020-06-03T07:00:00.000Z</time>
      </trkpt>
      <trkpt lat="43.52914" lon="1.47577">
        <ele>212.19999694824</ele>
        <time>2020-06-03T07:00:04.000Z</time>
      </trkpt>
      <trkpt lat="43.52904" lon="1.47572">
        <ele>213.60000610352</ele>
        <time>2020-06-03T07:00:08.000Z</time>
      </trkpt>
      <trkpt lat="43.52895" lon="1.47569">
        <ele>214.80000305176</ele>
        <time>2020-06-03T07:00:11.000Z</time>
      </trkpt>
      <trkpt lat="43.52888" lon="1.4757">
        <ele>215.80000305176</ele>
        <time>2020-06-03T07:00:13.000Z</time>
      </trkpt>
      <trkpt lat="43.52867" lon="1.47589">
        <ele>216.80000305176</ele>
        <time>2020-06-03T07:00:20.000Z</time>
      </trkpt>
      <trkpt lat="43.52827" lon="1.47648">
        <ele>216.60000610352</ele>
        <time>2020-06-03T07:00:34.000Z</time>
      </trkpt>
      <trkpt lat="43.52804" lon="1.47687">
        <ele>216</ele>
        <time>2020-06-03T07:00:42.000Z</time>
      </trkpt>
      <trkpt lat="43.52783" lon="1.47719">
        <ele>215.80000305176</ele>
        <time>2020-06-03T07:00:48.000Z</time>
      </trkpt>
      <trkpt lat="43.5277" lon="1.47724">
        <ele>215.19999694824</ele>
        <time>2020-06-03T07:00:51.000Z</time>
      </trkpt>
      <trkpt lat="43.52716" lon="1.4771">
        <ele>214.80000305176</ele>
        <time>2020-06-03T07:01:05.000Z</time>
      </trkpt>
      <trkpt lat="43.52668" lon="1.4767">
        <ele>216.19999694824</ele>
        <time>2020-06-03T07:01:20.000Z</time>
      </trkpt>
      <trkpt lat="43.52654" lon="1.47654">
        <ele>216.39999389648</ele>
        <time>2020-06-03T07:01:25.000Z</time>
      </trkpt>
      <trkpt lat="43.5261" lon="1.47618">
        <ele>217.39999389648</ele>
        <time>2020-06-03T07:01:41.000Z</time>
      </trkpt>
      <trkpt lat="43.52606" lon="1.47618">
        <ele>217.60000610352</ele>
        <time>2020-06-03T07:01:42.000Z</time>
      </trkpt>
      <trkpt lat="43.52557" lon="1.47645">
        <ele>218.80000305176</ele>
        <time>2020-06-03T07:01:58.000Z</time>
      </trkpt>
      <trkpt lat="43.52536" lon="1.4766">
        <ele>220</ele>
        <time>2020-06-03T07:02:05.000Z</time>
      </trkpt>
      <trkpt lat="43.52516" lon="1.47677">
        <ele>221.19999694824</ele>
        <time>2020-06-03T07:02:12.000Z</time>
      </trkpt>
      <trkpt lat="43.52502" lon="1.47692">
        <ele>222.39999389648</ele>
        <time>2020-06-03T07:02:17.000Z</time>
      </trkpt>
      <trkpt lat="43.52482" lon="1.47715">
        <ele>223.60000610352</ele>
        <time>2020-06-03T07:02:26.000Z</time>
      </trkpt>
      <trkpt lat="43.52473" lon="1.47726">
        <ele>224.60000610352</ele>
        <time>2020-06-03T07:02:30.000Z</time>
      </trkpt>
      <trkpt lat="43.52447" lon="1.47756">
        <ele>225.60000610352</ele>
        <time>2020-06-03T07:02:41.000Z</time>
      </trkpt>
      <trkpt lat="43.52424" lon="1.47777">
        <ele>227</ele>
        <time>2020-06-03T07:02:51.000Z</time>
      </trkpt>
      <trkpt lat="43.52366" lon="1.4779">
        <ele>227.80000305176</ele>
        <time>2020-06-03T07:03:08.000Z</time>
      </trkpt>
      <trkpt lat="43.52359" lon="1.47788">
        <ele>228</ele>
        <time>2020-06-03T07:03:10.000Z</time>
      </trkpt>
      <trkpt lat="43.52311" lon="1.47792">
        <ele>229.19999694824</ele>
        <time>2020-06-03T07:03:26.000Z</time>
      </trkpt>
      <trkpt lat="43.52283" lon="1.47803">
        <ele>230.39999389648</ele>
        <time>2020-06-03T07:03:36.000Z</time>
      </trkpt>
      <trkpt lat="43.52272" lon="1.47809">
        <ele>231.39999389648</ele>
        <time>2020-06-03T07:03:41.000Z</time>
      </trkpt>
      <trkpt lat="43.52261" lon="1.47813">
        <ele>232.60000610352</ele>
        <time>2020-06-03T07:03:46.000Z</time>
      </trkpt>
      <trkpt lat="43.5224" lon="1.47821">
        <ele>233.60000610352</ele>
        <time>2020-06-03T07:03:55.000Z</time>
      </trkpt>
      <trkpt lat="43.52217" lon="1.47831">
        <ele>234.80000305176</ele>
        <time>2020-06-03T07:04:04.000Z</time>
      </trkpt>
      <trkpt lat="43.52204" lon="1.47835">
        <ele>235.80000305176</ele>
        <time>2020-06-03T07:04:09.000Z</time>
      </trkpt>
      <trkpt lat="43.5215" lon="1.47845">
        <ele>236.39999389648</ele>
        <time>2020-06-03T07:04:24.000Z</time>
      </trkpt>
      <trkpt lat="43.52096" lon="1.47852">
        <ele>236.80000305176</ele>
        <time>2020-06-03T07:04:41.000Z</time>
      </trkpt>
      <trkpt lat="43.52087" lon="1.47854">
        <ele>237.19999694824</ele>
        <time>2020-06-03T07:04:44.000Z</time>
      </trkpt>
      <trkpt lat="43.52055" lon="1.47859">
        <ele>238.19999694824</ele>
        <time>2020-06-03T07:04:57.000Z</time>
      </trkpt>
      <trkpt lat="43.52024" lon="1.47864">
        <ele>239.39999389648</ele>
        <time>2020-06-03T07:05:08.000Z</time>
      </trkpt>
      <trkpt lat="43.52004" lon="1.4787">
        <ele>240.60000610352</ele>
        <time>2020-06-03T07:05:16.000Z</time>
      </trkpt>
      <trkpt lat="43.5199" lon="1.47875">
        <ele>241.80000305176</ele>
        <time>2020-06-03T07:05:23.000Z</time>
      </trkpt>
      <trkpt lat="43.51979" lon="1.4788">
        <ele>243</ele>
        <time>2020-06-03T07:05:29.000Z</time>
      </trkpt>
      <trkpt lat="43.51971" lon="1.47884">
        <ele>244.19999694824</ele>
        <time>2020-06-03T07:05:34.000Z</time>
      </trkpt>
      <trkpt lat="43.5196" lon="1.47887">
        <ele>245.39999389648</ele>
        <time>2020-06-03T07:05:40.000Z</time>
      </trkpt>
      <trkpt lat="43.51942" lon="1.47889">
        <ele>246.39999389648</ele>
        <time>2020-06-03T07:05:47.000Z</time>
      </trkpt>
      <trkpt lat="43.51931" lon="1.47894">
        <ele>247.60000610352</ele>
        <time>2020-06-03T07:05:52.000Z</time>
      </trkpt>
      <trkpt lat="43.51922" lon="1.47892">
        <ele>248.80000305176</ele>
        <time>2020-06-03T07:05:56.000Z</time>
      </trkpt>
      <trkpt lat="43.51908" lon="1.47888">
        <ele>250.39999389648</ele>
        <time>2020-06-03T07:06:02.000Z</time>
      </trkpt>
      <trkpt lat="43.51901" lon="1.47885">
        <ele>251.39999389648</ele>
        <time>2020-06-03T07:06:06.000Z</time>
      </trkpt>
      <trkpt lat="43.51893" lon="1.47879">
        <ele>252.39999389648</ele>
        <time>2020-06-03T07:06:11.000Z</time>
      </trkpt>
      <trkpt lat="43.5188" lon="1.47866">
        <ele>253.39999389648</ele>
        <time>2020-06-03T07:06:18.000Z</time>
      </trkpt>
      <trkpt lat="43.5186" lon="1.47846">
        <ele>254.80000305176</ele>
        <time>2020-06-03T07:06:29.000Z</time>
      </trkpt>
      <trkpt lat="43.51844" lon="1.47826">
        <ele>255.80000305176</ele>
        <time>2020-06-03T07:06:38.000Z</time>
      </trkpt>
      <trkpt lat="43.51822" lon="1.47795">
        <ele>257</ele>
        <time>2020-06-03T07:06:54.000Z</time>
      </trkpt>
      <trkpt lat="43.51811" lon="1.4778">
        <ele>258.20001220703</ele>
        <time>2020-06-03T07:07:02.000Z</time>
      </trkpt>
      <trkpt lat="43.51801" lon="1.47766">
        <ele>259.20001220703</ele>
        <time>2020-06-03T07:07:09.000Z</time>
      </trkpt>
      <trkpt lat="43.5179" lon="1.47747">
        <ele>260.20001220703</ele>
        <time>2020-06-03T07:07:18.000Z</time>
      </trkpt>
      <trkpt lat="43.51776" lon="1.47724">
        <ele>261.39999389648</ele>
        <time>2020-06-03T07:07:30.000Z</time>
      </trkpt>
      <trkpt lat="43.51767" lon="1.47708">
        <ele>262.39999389648</ele>
        <time>2020-06-03T07:07:37.000Z</time>
      </trkpt>
      <trkpt lat="43.51762" lon="1.47699">
        <ele>263.39999389648</ele>
        <time>2020-06-03T07:07:42.000Z</time>
      </trkpt>
      <trkpt lat="43.51749" lon="1.47679">
        <ele>264.39999389648</ele>
        <time>2020-06-03T07:07:52.000Z</time>
      </trkpt>
      <trkpt lat="43.51746" lon="1.47675">
        <ele>264.60000610352</ele>
        <time>2020-06-03T07:07:54.000Z</time>
      </trkpt>
      <trkpt lat="43.5174" lon="1.47666">
        <ele>265.60000610352</ele>
        <time>2020-06-03T07:08:00.000Z</time>
      </trkpt>
      <trkpt lat="43.51738" lon="1.47663">
        <ele>266</ele>
        <time>2020-06-03T07:08:02.000Z</time>
      </trkpt>
      <trkpt lat="43.51729" lon="1.47658">
        <ele>266.60000610352</ele>
        <time>2020-06-03T07:08:07.000Z</time>
      </trkpt>
      <trkpt lat="43.51719" lon="1.47651">
        <ele>268</ele>
        <time>2020-06-03T07:08:12.000Z</time>
      </trkpt>
      <trkpt lat="43.51708" lon="1.47646">
        <ele>269</ele>
        <time>2020-06-03T07:08:16.000Z</time>
      </trkpt>
      <trkpt lat="43.51691" lon="1.47637">
        <ele>270</ele>
        <time>2020-06-03T07:08:22.000Z</time>
      </trkpt>
      <trkpt lat="43.51676" lon="1.47632">
        <ele>271.39999389648</ele>
        <time>2020-06-03T07:08:28.000Z</time>
      </trkpt>
      <trkpt lat="43.51659" lon="1.47625">
        <ele>272.20001220703</ele>
        <time>2020-06-03T07:08:35.000Z</time>
      </trkpt>
      <trkpt lat="43.5161" lon="1.47605">
        <ele>271.20001220703</ele>
        <time>2020-06-03T07:08:44.000Z</time>
      </trkpt>
      <trkpt lat="43.51594" lon="1.47598">
        <ele>270.20001220703</ele>
        <time>2020-06-03T07:08:46.000Z</time>
      </trkpt>
      <trkpt lat="43.51579" lon="1.47592">
        <ele>267.79998779297</ele>
        <time>2020-06-03T07:08:48.000Z</time>
      </trkpt>
      <trkpt lat="43.51563" lon="1.47587">
        <ele>266.79998779297</ele>
        <time>2020-06-03T07:08:50.000Z</time>
      </trkpt>
      <trkpt lat="43.51546" lon="1.47581">
        <ele>265.20001220703</ele>
        <time>2020-06-03T07:08:52.000Z</time>
      </trkpt>
      <trkpt lat="43.51529" lon="1.47577">
        <ele>263.79998779297</ele>
        <time>2020-06-03T07:08:54.000Z</time>
      </trkpt>
      <trkpt lat="43.51498" lon="1.47569">
        <ele>262.60000610352</ele>
        <time>2020-06-03T07:08:58.000Z</time>
      </trkpt>
      <trkpt lat="43.51479" lon="1.47566">
        <ele>261.39999389648</ele>
        <time>2020-06-03T07:09:01.000Z</time>
      </trkpt>
      <trkpt lat="43.51427" lon="1.47533">
        <ele>262.39999389648</ele>
        <time>2020-06-03T07:09:19.000Z</time>
      </trkpt>
      <trkpt lat="43.51401" lon="1.47519">
        <ele>263.79998779297</ele>
        <time>2020-06-03T07:09:27.000Z</time>
      </trkpt>
      <trkpt lat="43.51347" lon="1.47488">
        <ele>264.79998779297</ele>
        <time>2020-06-03T07:09:43.000Z</time>
      </trkpt>
      <trkpt lat="43.51321" lon="1.47473">
        <ele>265</ele>
        <time>2020-06-03T07:09:50.000Z</time>
      </trkpt>
      <trkpt lat="43.51264" lon="1.47452">
        <ele>265.20001220703</ele>
        <time>2020-06-03T07:10:04.000Z</time>
      </trkpt>
      <trkpt lat="43.5121" lon="1.47444">
        <ele>266</ele>
        <time>2020-06-03T07:10:17.000Z</time>
      </trkpt>
      <trkpt lat="43.51198" lon="1.47445">
        <ele>266.20001220703</ele>
        <time>2020-06-03T07:10:20.000Z</time>
      </trkpt>
      <trkpt lat="43.51141" lon="1.47462">
        <ele>267</ele>
        <time>2020-06-03T07:10:35.000Z</time>
      </trkpt>
      <trkpt lat="43.5113" lon="1.47462">
        <ele>267.20001220703</ele>
        <time>2020-06-03T07:10:38.000Z</time>
      </trkpt>
      <trkpt lat="43.51104" lon="1.47458">
        <ele>268.20001220703</ele>
        <time>2020-06-03T07:10:46.000Z</time>
      </trkpt>
      <trkpt lat="43.51076" lon="1.47449">
        <ele>269.20001220703</ele>
        <time>2020-06-03T07:10:56.000Z</time>
      </trkpt>
      <trkpt lat="43.51063" lon="1.47444">
        <ele>270.39999389648</ele>
        <time>2020-06-03T07:11:02.000Z</time>
      </trkpt>
      <trkpt lat="43.51044" lon="1.47439">
        <ele>271.60000610352</ele>
        <time>2020-06-03T07:11:09.000Z</time>
      </trkpt>
      <trkpt lat="43.51027" lon="1.47435">
        <ele>272.60000610352</ele>
        <time>2020-06-03T07:11:16.000Z</time>
      </trkpt>
      <trkpt lat="43.51011" lon="1.47428">
        <ele>273.79998779297</ele>
        <time>2020-06-03T07:11:23.000Z</time>
      </trkpt>
      <trkpt lat="43.51" lon="1.47422">
        <ele>275</ele>
        <time>2020-06-03T07:11:28.000Z</time>
      </trkpt>
      <trkpt lat="43.50989" lon="1.47414">
        <ele>276.20001220703</ele>
        <time>2020-06-03T07:11:33.000Z</time>
      </trkpt>
      <trkpt lat="43.5098" lon="1.47406">
        <ele>277.39999389648</ele>
        <time>2020-06-03T07:11:38.000Z</time>
      </trkpt>
      <trkpt lat="43.50976" lon="1.47403">
        <ele>277.79998779297</ele>
        <time>2020-06-03T07:11:40.000Z</time>
      </trkpt>
      <trkpt lat="43.50967" lon="1.47407">
        <ele>278.39999389648</ele>
        <time>2020-06-03T07:11:43.000Z</time>
      </trkpt>
      <trkpt lat="43.50962" lon="1.47413">
        <ele>278.39999389648</ele>
        <time>2020-06-03T07:11:45.000Z</time>
      </trkpt>
      <trkpt lat="43.50916" lon="1.47469">
        <ele>278.79998779297</ele>
        <time>2020-06-03T07:12:03.000Z</time>
      </trkpt>
      <trkpt lat="43.50904" lon="1.47486">
        <ele>279.79998779297</ele>
        <time>2020-06-03T07:12:08.000Z</time>
      </trkpt>
      <trkpt lat="43.50882" lon="1.47522">
        <ele>280.79998779297</ele>
        <time>2020-06-03T07:12:18.000Z</time>
      </trkpt>
      <trkpt lat="43.50861" lon="1.4756">
        <ele>281.79998779297</ele>
        <time>2020-06-03T07:12:28.000Z</time>
      </trkpt>
      <trkpt lat="43.50825" lon="1.47621">
        <ele>282.79998779297</ele>
        <time>2020-06-03T07:12:43.000Z</time>
      </trkpt>
      <trkpt lat="43.50785" lon="1.47667">
        <ele>282.60000610352</ele>
        <time>2020-06-03T07:12:54.000Z</time>
      </trkpt>
      <trkpt lat="43.50738" lon="1.4772">
        <ele>281.39999389648</ele>
        <time>2020-06-03T07:13:04.000Z</time>
      </trkpt>
      <trkpt lat="43.50728" lon="1.47731">
        <ele>280.79998779297</ele>
        <time>2020-06-03T07:13:06.000Z</time>
      </trkpt>
      <trkpt lat="43.50688" lon="1.47776">
        <ele>279.60000610352</ele>
        <time>2020-06-03T07:13:14.000Z</time>
      </trkpt>
      <trkpt lat="43.50668" lon="1.47799">
        <ele>278.39999389648</ele>
        <time>2020-06-03T07:13:18.000Z</time>
      </trkpt>
      <trkpt lat="43.50643" lon="1.47826">
        <ele>277.39999389648</ele>
        <time>2020-06-03T07:13:23.000Z</time>
      </trkpt>
      <trkpt lat="43.50608" lon="1.47863">
        <ele>276.39999389648</ele>
        <time>2020-06-03T07:13:30.000Z</time>
      </trkpt>
      <trkpt lat="43.50562" lon="1.47908">
        <ele>276.39999389648</ele>
        <time>2020-06-03T07:13:40.000Z</time>
      </trkpt>
      <trkpt lat="43.50518" lon="1.47957">
        <ele>277.20001220703</ele>
        <time>2020-06-03T07:13:51.000Z</time>
      </trkpt>
      <trkpt lat="43.50509" lon="1.47965">
        <ele>277.39999389648</ele>
        <time>2020-06-03T07:13:53.000Z</time>
      </trkpt>
      <trkpt lat="43.50469" lon="1.48021">
        <ele>278.20001220703</ele>
        <time>2020-06-03T07:14:04.000Z</time>
      </trkpt>
      <trkpt lat="43.50454" lon="1.48045">
        <ele>278.60000610352</ele>
        <time>2020-06-03T07:14:09.000Z</time>
      </trkpt>
      <trkpt lat="43.50429" lon="1.48077">
        <ele>279.79998779297</ele>
        <time>2020-06-03T07:14:17.000Z</time>
      </trkpt>
      <trkpt lat="43.50404" lon="1.48104">
        <ele>281</ele>
        <time>2020-06-03T07:14:26.000Z</time>
      </trkpt>
      <trkpt lat="43.5036" lon="1.48148">
        <ele>280.79998779297</ele>
        <time>2020-06-03T07:14:35.000Z</time>
      </trkpt>
      <trkpt lat="43.5034" lon="1.48167">
        <ele>280</ele>
        <time>2020-06-03T07:14:38.000Z</time>
      </trkpt>
      <trkpt lat="43.50319" lon="1.48189">
        <ele>278.20001220703</ele>
        <time>2020-06-03T07:14:41.000Z</time>
      </trkpt>
      <trkpt lat="43.50304" lon="1.48205">
        <ele>276.79998779297</ele>
        <time>2020-06-03T07:14:43.000Z</time>
      </trkpt>
      <trkpt lat="43.50288" lon="1.48221">
        <ele>275.20001220703</ele>
        <time>2020-06-03T07:14:45.000Z</time>
      </trkpt>
      <trkpt lat="43.50264" lon="1.48247">
        <ele>273.39999389648</ele>
        <time>2020-06-03T07:14:48.000Z</time>
      </trkpt>
      <trkpt lat="43.50257" lon="1.48257">
        <ele>272.39999389648</ele>
        <time>2020-06-03T07:14:49.000Z</time>
      </trkpt>
      <trkpt lat="43.50249" lon="1.48266">
        <ele>271.39999389648</ele>
        <time>2020-06-03T07:14:50.000Z</time>
      </trkpt>
      <trkpt lat="43.50233" lon="1.48286">
        <ele>269.60000610352</ele>
        <time>2020-06-03T07:14:52.000Z</time>
      </trkpt>
      <trkpt lat="43.50216" lon="1.48305">
        <ele>268</ele>
        <time>2020-06-03T07:14:54.000Z</time>
      </trkpt>
      <trkpt lat="43.50199" lon="1.48325">
        <ele>266.60000610352</ele>
        <time>2020-06-03T07:14:56.000Z</time>
      </trkpt>
      <trkpt lat="43.50183" lon="1.48346">
        <ele>265</ele>
        <time>2020-06-03T07:14:58.000Z</time>
      </trkpt>
      <trkpt lat="43.50166" lon="1.48365">
        <ele>263.20001220703</ele>
        <time>2020-06-03T07:15:00.000Z</time>
      </trkpt>
      <trkpt lat="43.50158" lon="1.48375">
        <ele>262.20001220703</ele>
        <time>2020-06-03T07:15:01.000Z</time>
      </trkpt>
      <trkpt lat="43.50142" lon="1.48394">
        <ele>260.39999389648</ele>
        <time>2020-06-03T07:15:03.000Z</time>
      </trkpt>
      <trkpt lat="43.50134" lon="1.48403">
        <ele>259</ele>
        <time>2020-06-03T07:15:04.000Z</time>
      </trkpt>
      <trkpt lat="43.50111" lon="1.4843">
        <ele>257.79998779297</ele>
        <time>2020-06-03T07:15:07.000Z</time>
      </trkpt>
      <trkpt lat="43.50065" lon="1.48484">
        <ele>257</ele>
        <time>2020-06-03T07:15:14.000Z</time>
      </trkpt>
      <trkpt lat="43.50022" lon="1.48514">
        <ele>259.20001220703</ele>
        <time>2020-06-03T07:15:22.000Z</time>
      </trkpt>
      <trkpt lat="43.50003" lon="1.48521">
        <ele>260.20001220703</ele>
        <time>2020-06-03T07:15:26.000Z</time>
      </trkpt>
      <trkpt lat="43.49983" lon="1.48528">
        <ele>261.20001220703</ele>
        <time>2020-06-03T07:15:31.000Z</time>
      </trkpt>
      <trkpt lat="43.49967" lon="1.48534">
        <ele>262.60000610352</ele>
        <time>2020-06-03T07:15:36.000Z</time>
      </trkpt>
      <trkpt lat="43.49962" lon="1.48535">
        <ele>263.60000610352</ele>
        <time>2020-06-03T07:15:38.000Z</time>
      </trkpt>
      <trkpt lat="43.49951" lon="1.48539">
        <ele>264.60000610352</ele>
        <time>2020-06-03T07:15:42.000Z</time>
      </trkpt>
      <trkpt lat="43.49941" lon="1.48543">
        <ele>265.79998779297</ele>
        <time>2020-06-03T07:15:46.000Z</time>
      </trkpt>
      <trkpt lat="43.49931" lon="1.48547">
        <ele>267</ele>
        <time>2020-06-03T07:15:50.000Z</time>
      </trkpt>
      <trkpt lat="43.4992" lon="1.48552">
        <ele>268</ele>
        <time>2020-06-03T07:15:54.000Z</time>
      </trkpt>
      <trkpt lat="43.4991" lon="1.48556">
        <ele>269.20001220703</ele>
        <time>2020-06-03T07:15:58.000Z</time>
      </trkpt>
      <trkpt lat="43.49905" lon="1.48557">
        <ele>269.39999389648</ele>
        <time>2020-06-03T07:16:00.000Z</time>
      </trkpt>
      <trkpt lat="43.49898" lon="1.48559">
        <ele>270.20001220703</ele>
        <time>2020-06-03T07:16:03.000Z</time>
      </trkpt>
      <trkpt lat="43.49886" lon="1.48561">
        <ele>271.39999389648</ele>
        <time>2020-06-03T07:16:08.000Z</time>
      </trkpt>
      <trkpt lat="43.49876" lon="1.4856">
        <ele>272.60000610352</ele>
        <time>2020-06-03T07:16:12.000Z</time>
      </trkpt>
      <trkpt lat="43.49862" lon="1.48558">
        <ele>273.79998779297</ele>
        <time>2020-06-03T07:16:17.000Z</time>
      </trkpt>
      <trkpt lat="43.49847" lon="1.48555">
        <ele>275</ele>
        <time>2020-06-03T07:16:22.000Z</time>
      </trkpt>
      <trkpt lat="43.49837" lon="1.48555">
        <ele>275.20001220703</ele>
        <time>2020-06-03T07:16:25.000Z</time>
      </trkpt>
      <trkpt lat="43.49814" lon="1.48567">
        <ele>275.20001220703</ele>
        <time>2020-06-03T07:16:30.000Z</time>
      </trkpt>
      <trkpt lat="43.49785" lon="1.486">
        <ele>274</ele>
        <time>2020-06-03T07:16:36.000Z</time>
      </trkpt>
      <trkpt lat="43.4977" lon="1.48623">
        <ele>272.79998779297</ele>
        <time>2020-06-03T07:16:39.000Z</time>
      </trkpt>
      <trkpt lat="43.49753" lon="1.48648">
        <ele>271.39999389648</ele>
        <time>2020-06-03T07:16:42.000Z</time>
      </trkpt>
      <trkpt lat="43.49728" lon="1.48685">
        <ele>270.20001220703</ele>
        <time>2020-06-03T07:16:46.000Z</time>
      </trkpt>
      <trkpt lat="43.49714" lon="1.48705">
        <ele>268.60000610352</ele>
        <time>2020-06-03T07:16:48.000Z</time>
      </trkpt>
      <trkpt lat="43.497" lon="1.48724">
        <ele>267</ele>
        <time>2020-06-03T07:16:50.000Z</time>
      </trkpt>
      <trkpt lat="43.49686" lon="1.48743">
        <ele>265.60000610352</ele>
        <time>2020-06-03T07:16:52.000Z</time>
      </trkpt>
      <trkpt lat="43.49665" lon="1.48772">
        <ele>263.79998779297</ele>
        <time>2020-06-03T07:16:55.000Z</time>
      </trkpt>
      <trkpt lat="43.49651" lon="1.4879">
        <ele>262</ele>
        <time>2020-06-03T07:16:57.000Z</time>
      </trkpt>
      <trkpt lat="43.49637" lon="1.48808">
        <ele>260.79998779297</ele>
        <time>2020-06-03T07:16:59.000Z</time>
      </trkpt>
      <trkpt lat="43.49591" lon="1.48871">
        <ele>259.79998779297</ele>
        <time>2020-06-03T07:17:07.000Z</time>
      </trkpt>
      <trkpt lat="43.4955" lon="1.48931">
        <ele>261.60000610352</ele>
        <time>2020-06-03T07:17:16.000Z</time>
      </trkpt>
      <trkpt lat="43.49546" lon="1.48937">
        <ele>262</ele>
        <time>2020-06-03T07:17:17.000Z</time>
      </trkpt>
      <trkpt lat="43.49518" lon="1.48971">
        <ele>263.20001220703</ele>
        <time>2020-06-03T07:17:23.000Z</time>
      </trkpt>
      <trkpt lat="43.49478" lon="1.4901">
        <ele>264.39999389648</ele>
        <time>2020-06-03T07:17:32.000Z</time>
      </trkpt>
      <trkpt lat="43.49462" lon="1.49026">
        <ele>265.39999389648</ele>
        <time>2020-06-03T07:17:36.000Z</time>
      </trkpt>
      <trkpt lat="43.49434" lon="1.49058">
        <ele>266.39999389648</ele>
        <time>2020-06-03T07:17:44.000Z</time>
      </trkpt>
      <trkpt lat="43.49418" lon="1.49076">
        <ele>267.60000610352</ele>
        <time>2020-06-03T07:17:49.000Z</time>
      </trkpt>
      <trkpt lat="43.49394" lon="1.49105">
        <ele>268.60000610352</ele>
        <time>2020-06-03T07:17:58.000Z</time>
      </trkpt>
      <trkpt lat="43.49382" lon="1.49118">
        <ele>269.60000610352</ele>
        <time>2020-06-03T07:18:03.000Z</time>
      </trkpt>
      <trkpt lat="43.4937" lon="1.49133">
        <ele>270.79998779297</ele>
        <time>2020-06-03T07:18:10.000Z</time>
      </trkpt>
      <trkpt lat="43.49356" lon="1.49148">
        <ele>272</ele>
        <time>2020-06-03T07:18:18.000Z</time>
      </trkpt>
      <trkpt lat="43.49341" lon="1.49164">
        <ele>273</ele>
        <time>2020-06-03T07:18:27.000Z</time>
      </trkpt>
      <trkpt lat="43.49332" lon="1.49175">
        <ele>274.20001220703</ele>
        <time>2020-06-03T07:18:33.000Z</time>
      </trkpt>
      <trkpt lat="43.49317" lon="1.49192">
        <ele>275.39999389648</ele>
        <time>2020-06-03T07:18:43.000Z</time>
      </trkpt>
      <trkpt lat="43.49301" lon="1.49214">
        <ele>276.60000610352</ele>
        <time>2020-06-03T07:18:53.000Z</time>
      </trkpt>
      <trkpt lat="43.4929" lon="1.49233">
        <ele>270</ele>
        <time>2020-06-03T07:19:02.000Z</time>
      </trkpt>
      <trkpt lat="43.49279" lon="1.49248">
        <ele>278.60000610352</ele>
        <time>2020-06-03T07:19:10.000Z</time>
      </trkpt>
      <trkpt lat="43.49262" lon="1.49272">
        <ele>279.60000610352</ele>
        <time>2020-06-03T07:19:21.000Z</time>
      </trkpt>
      <trkpt lat="43.49241" lon="1.49302">
        <ele>280.60000610352</ele>
        <time>2020-06-03T07:19:34.000Z</time>
      </trkpt>
      <trkpt lat="43.49226" lon="1.4932">
        <ele>281.60000610352</ele>
        <time>2020-06-03T07:19:42.000Z</time>
      </trkpt>
      <trkpt lat="43.49211" lon="1.4934">
        <ele>282.79998779297</ele>
        <time>2020-06-03T07:19:50.000Z</time>
      </trkpt>
      <trkpt lat="43.49169" lon="1.49385">
        <ele>283.79998779297</ele>
        <time>2020-06-03T07:20:06.000Z</time>
      </trkpt>
      <trkpt lat="43.49133" lon="1.4944">
        <ele>283.79998779297</ele>
        <time>2020-06-03T07:20:19.000Z</time>
      </trkpt>
      <trkpt lat="43.49112" lon="1.49493">
        <ele>284</ele>
        <time>2020-06-03T07:20:29.000Z</time>
      </trkpt>
      <trkpt lat="43.4909" lon="1.49567">
        <ele>285</ele>
        <time>2020-06-03T07:20:43.000Z</time>
      </trkpt>
      <trkpt lat="43.49067" lon="1.49639">
        <ele>285.79998779297</ele>
        <time>2020-06-03T07:20:56.000Z</time>
      </trkpt>
      <trkpt lat="43.49043" lon="1.49706">
        <ele>285.79998779297</ele>
        <time>2020-06-03T07:21:08.000Z</time>
      </trkpt>
      <trkpt lat="43.49017" lon="1.49777">
        <ele>285</ele>
        <time>2020-06-03T07:21:20.000Z</time>
      </trkpt>
      <trkpt lat="43.49009" lon="1.49805">
        <ele>284.39999389648</ele>
        <time>2020-06-03T07:21:28.000Z</time>
      </trkpt>
      <trkpt lat="43.49008" lon="1.49806">
        <ele>283.79998779297</ele>
        <time>2020-06-03T07:23:48.000Z</time>
      </trkpt>
      <trkpt lat="43.49007" lon="1.49806">
        <ele>283.79998779297</ele>
        <time>2020-06-03T07:23:49.000Z</time>
      </trkpt>
      <trkpt lat="43.48997" lon="1.49818">
        <ele>283.60000610352</ele>
        <time>2020-06-03T07:23:53.000Z</time>
      </trkpt>
      <trkpt lat="43.48966" lon="1.49878">
        <ele>282.60000610352</ele>
        <time>2020-06-03T07:24:02.000Z</time>
      </trkpt>
      <trkpt lat="43.48947" lon="1.49913">
        <ele>280.79998779297</ele>
        <time>2020-06-03T07:24:06.000Z</time>
      </trkpt>
      <trkpt lat="43.48937" lon="1.4993">
        <ele>279.60000610352</ele>
        <time>2020-06-03T07:24:08.000Z</time>
      </trkpt>
      <trkpt lat="43.48919" lon="1.49953">
        <ele>278.39999389648</ele>
        <time>2020-06-03T07:24:11.000Z</time>
      </trkpt>
      <trkpt lat="43.48913" lon="1.4996">
        <ele>277.60000610352</ele>
        <time>2020-06-03T07:24:12.000Z</time>
      </trkpt>
      <trkpt lat="43.48905" lon="1.49966">
        <ele>277</ele>
        <time>2020-06-03T07:24:13.000Z</time>
      </trkpt>
      <trkpt lat="43.48879" lon="1.49977">
        <ele>276</ele>
        <time>2020-06-03T07:24:17.000Z</time>
      </trkpt>
      <trkpt lat="43.48857" lon="1.49987">
        <ele>274.79998779297</ele>
        <time>2020-06-03T07:24:21.000Z</time>
      </trkpt>
      <trkpt lat="43.48804" lon="1.50011">
        <ele>274</ele>
        <time>2020-06-03T07:24:33.000Z</time>
      </trkpt>
      <trkpt lat="43.4879" lon="1.5002">
        <ele>273.79998779297</ele>
        <time>2020-06-03T07:24:36.000Z</time>
      </trkpt>
      <trkpt lat="43.48746" lon="1.50052">
        <ele>272.60000610352</ele>
        <time>2020-06-03T07:24:46.000Z</time>
      </trkpt>
      <trkpt lat="43.48695" lon="1.50089">
        <ele>271.79998779297</ele>
        <time>2020-06-03T07:24:57.000Z</time>
      </trkpt>
      <trkpt lat="43.48686" lon="1.50097">
        <ele>271.60000610352</ele>
        <time>2020-06-03T07:24:59.000Z</time>
      </trkpt>
      <trkpt lat="43.48637" lon="1.50131">
        <ele>271.20001220703</ele>
        <time>2020-06-03T07:25:09.000Z</time>
      </trkpt>
      <trkpt lat="43.4859" lon="1.50166">
        <ele>271.20001220703</ele>
        <time>2020-06-03T07:25:19.000Z</time>
      </trkpt>
      <trkpt lat="43.48543" lon="1.50198">
        <ele>271.39999389648</ele>
        <time>2020-06-03T07:25:29.000Z</time>
      </trkpt>
      <trkpt lat="43.4849" lon="1.50225">
        <ele>270.79998779297</ele>
        <time>2020-06-03T07:25:37.000Z</time>
      </trkpt>
      <trkpt lat="43.48482" lon="1.50228">
        <ele>270.39999389648</ele>
        <time>2020-06-03T07:25:38.000Z</time>
      </trkpt>
      <trkpt lat="43.48459" lon="1.5024">
        <ele>269.20001220703</ele>
        <time>2020-06-03T07:25:41.000Z</time>
      </trkpt>
      <trkpt lat="43.48444" lon="1.50249">
        <ele>268.20001220703</ele>
        <time>2020-06-03T07:25:43.000Z</time>
      </trkpt>
      <trkpt lat="43.48429" lon="1.50258">
        <ele>266.79998779297</ele>
        <time>2020-06-03T07:25:45.000Z</time>
      </trkpt>
      <trkpt lat="43.48415" lon="1.50268">
        <ele>265.79998779297</ele>
        <time>2020-06-03T07:25:47.000Z</time>
      </trkpt>
      <trkpt lat="43.484" lon="1.50278">
        <ele>264.60000610352</ele>
        <time>2020-06-03T07:25:49.000Z</time>
      </trkpt>
      <trkpt lat="43.4836" lon="1.50308">
        <ele>263.39999389648</ele>
        <time>2020-06-03T07:25:55.000Z</time>
      </trkpt>
      <trkpt lat="43.48342" lon="1.50323">
        <ele>262.39999389648</ele>
        <time>2020-06-03T07:25:58.000Z</time>
      </trkpt>
      <trkpt lat="43.48293" lon="1.50362">
        <ele>262</ele>
        <time>2020-06-03T07:26:07.000Z</time>
      </trkpt>
      <trkpt lat="43.48262" lon="1.50384">
        <ele>262</ele>
        <time>2020-06-03T07:26:17.000Z</time>
      </trkpt>
      <trkpt lat="43.48261" lon="1.50387">
        <ele>262.20001220703</ele>
        <time>2020-06-03T07:26:44.000Z</time>
      </trkpt>
      <trkpt lat="43.48261" lon="1.50388">
        <ele>262.39999389648</ele>
        <time>2020-06-03T07:26:45.000Z</time>
      </trkpt>
      <trkpt lat="43.48261" lon="1.50393">
        <ele>262.60000610352</ele>
        <time>2020-06-03T07:27:08.000Z</time>
      </trkpt>
      <trkpt lat="43.48259" lon="1.50397">
        <ele>262.60000610352</ele>
        <time>2020-06-03T07:27:11.000Z</time>
      </trkpt>
      <trkpt lat="43.48261" lon="1.50395">
        <ele>262.60000610352</ele>
        <time>2020-06-03T07:27:44.000Z</time>
      </trkpt>
      <trkpt lat="43.48266" lon="1.50395">
        <ele>262.60000610352</ele>
        <time>2020-06-03T07:27:48.000Z</time>
      </trkpt>
      <trkpt lat="43.48269" lon="1.50395">
        <ele>262.60000610352</ele>
        <time>2020-06-03T07:27:51.000Z</time>
      </trkpt>
      <trkpt lat="43.48271" lon="1.50396">
        <ele>262.60000610352</ele>
        <time>2020-06-03T07:28:17.000Z</time>
      </trkpt>
      <trkpt lat="43.48272" lon="1.50397">
        <ele>262.60000610352</ele>
        <time>2020-06-03T07:28:19.000Z</time>
      </trkpt>
      <trkpt lat="43.48273" lon="1.50399">
        <ele>262.39999389648</ele>
        <time>2020-06-03T07:32:29.000Z</time>
      </trkpt>
      <trkpt lat="43.48303" lon="1.50451">
        <ele>262</ele>
        <time>2020-06-03T07:32:42.000Z</time>
      </trkpt>
      <trkpt lat="43.48325" lon="1.50502">
        <ele>260.79998779297</ele>
        <time>2020-06-03T07:32:50.000Z</time>
      </trkpt>
      <trkpt lat="43.4835" lon="1.5057">
        <ele>260</ele>
        <time>2020-06-03T07:33:00.000Z</time>
      </trkpt>
      <trkpt lat="43.48373" lon="1.50637">
        <ele>260.20001220703</ele>
        <time>2020-06-03T07:33:10.000Z</time>
      </trkpt>
      <trkpt lat="43.48399" lon="1.50709">
        <ele>260.20001220703</ele>
        <time>2020-06-03T07:33:21.000Z</time>
      </trkpt>
      <trkpt lat="43.48409" lon="1.5075">
        <ele>260</ele>
        <time>2020-06-03T07:33:27.000Z</time>
      </trkpt>
      <trkpt lat="43.48415" lon="1.50787">
        <ele>259.79998779297</ele>
        <time>2020-06-03T07:33:32.000Z</time>
      </trkpt>
      <trkpt lat="43.48429" lon="1.50863">
        <ele>259.20001220703</ele>
        <time>2020-06-03T07:33:41.000Z</time>
      </trkpt>
      <trkpt lat="43.4843" lon="1.50872">
        <ele>259</ele>
        <time>2020-06-03T07:33:42.000Z</time>
      </trkpt>
      <trkpt lat="43.48436" lon="1.50915">
        <ele>257.60000610352</ele>
        <time>2020-06-03T07:33:46.000Z</time>
      </trkpt>
      <trkpt lat="43.48441" lon="1.5096">
        <ele>256.20001220703</ele>
        <time>2020-06-03T07:33:50.000Z</time>
      </trkpt>
      <trkpt lat="43.48443" lon="1.50982">
        <ele>254.60000610352</ele>
        <time>2020-06-03T07:33:52.000Z</time>
      </trkpt>
      <trkpt lat="43.48446" lon="1.51006">
        <ele>253.39999389648</ele>
        <time>2020-06-03T07:33:54.000Z</time>
      </trkpt>
      <trkpt lat="43.48448" lon="1.5103">
        <ele>252</ele>
        <time>2020-06-03T07:33:56.000Z</time>
      </trkpt>
      <trkpt lat="43.48451" lon="1.51054">
        <ele>251</ele>
        <time>2020-06-03T07:33:58.000Z</time>
      </trkpt>
      <trkpt lat="43.48455" lon="1.51076">
        <ele>249.80000305176</ele>
        <time>2020-06-03T07:34:00.000Z</time>
      </trkpt>
      <trkpt lat="43.48458" lon="1.51086">
        <ele>249.39999389648</ele>
        <time>2020-06-03T07:34:01.000Z</time>
      </trkpt>
      <trkpt lat="43.48462" lon="1.51096">
        <ele>248.60000610352</ele>
        <time>2020-06-03T07:34:02.000Z</time>
      </trkpt>
      <trkpt lat="43.48475" lon="1.51115">
        <ele>247.19999694824</ele>
        <time>2020-06-03T07:34:04.000Z</time>
      </trkpt>
      <trkpt lat="43.48492" lon="1.5113">
        <ele>246</ele>
        <time>2020-06-03T07:34:06.000Z</time>
      </trkpt>
      <trkpt lat="43.48511" lon="1.51144">
        <ele>244.60000610352</ele>
        <time>2020-06-03T07:34:08.000Z</time>
      </trkpt>
      <trkpt lat="43.48531" lon="1.51158">
        <ele>243</ele>
        <time>2020-06-03T07:34:10.000Z</time>
      </trkpt>
      <trkpt lat="43.48551" lon="1.51172">
        <ele>241</ele>
        <time>2020-06-03T07:34:12.000Z</time>
      </trkpt>
      <trkpt lat="43.48561" lon="1.51179">
        <ele>239.80000305176</ele>
        <time>2020-06-03T07:34:13.000Z</time>
      </trkpt>
      <trkpt lat="43.48571" lon="1.51185">
        <ele>238.60000610352</ele>
        <time>2020-06-03T07:34:14.000Z</time>
      </trkpt>
      <trkpt lat="43.48581" lon="1.51192">
        <ele>237.60000610352</ele>
        <time>2020-06-03T07:34:15.000Z</time>
      </trkpt>
      <trkpt lat="43.48591" lon="1.51199">
        <ele>236.39999389648</ele>
        <time>2020-06-03T07:34:16.000Z</time>
      </trkpt>
      <trkpt lat="43.48601" lon="1.51206">
        <ele>235.39999389648</ele>
        <time>2020-06-03T07:34:17.000Z</time>
      </trkpt>
      <trkpt lat="43.48611" lon="1.51212">
        <ele>234</ele>
        <time>2020-06-03T07:34:18.000Z</time>
      </trkpt>
      <trkpt lat="43.48621" lon="1.51219">
        <ele>231.60000610352</ele>
        <time>2020-06-03T07:34:19.000Z</time>
      </trkpt>
      <trkpt lat="43.48641" lon="1.51232">
        <ele>230.19999694824</ele>
        <time>2020-06-03T07:34:21.000Z</time>
      </trkpt>
      <trkpt lat="43.4866" lon="1.51245">
        <ele>229</ele>
        <time>2020-06-03T07:34:23.000Z</time>
      </trkpt>
      <trkpt lat="43.48688" lon="1.51264">
        <ele>227.80000305176</ele>
        <time>2020-06-03T07:34:26.000Z</time>
      </trkpt>
      <trkpt lat="43.48723" lon="1.51289">
        <ele>226.80000305176</ele>
        <time>2020-06-03T07:34:30.000Z</time>
      </trkpt>
      <trkpt lat="43.48752" lon="1.51304">
        <ele>226.19999694824</ele>
        <time>2020-06-03T07:34:34.000Z</time>
      </trkpt>
      <trkpt lat="43.48777" lon="1.51298">
        <ele>226</ele>
        <time>2020-06-03T07:34:39.000Z</time>
      </trkpt>
      <trkpt lat="43.48793" lon="1.5129">
        <ele>225.80000305176</ele>
        <time>2020-06-03T07:34:43.000Z</time>
      </trkpt>
      <trkpt lat="43.48802" lon="1.5129">
        <ele>225.80000305176</ele>
        <time>2020-06-03T07:34:45.000Z</time>
      </trkpt>
      <trkpt lat="43.48822" lon="1.51303">
        <ele>225.19999694824</ele>
        <time>2020-06-03T07:34:49.000Z</time>
      </trkpt>
      <trkpt lat="43.48832" lon="1.51316">
        <ele>224.19999694824</ele>
        <time>2020-06-03T07:34:51.000Z</time>
      </trkpt>
      <trkpt lat="43.48843" lon="1.51331">
        <ele>223</ele>
        <time>2020-06-03T07:34:53.000Z</time>
      </trkpt>
      <trkpt lat="43.48861" lon="1.51356">
        <ele>221.80000305176</ele>
        <time>2020-06-03T07:34:56.000Z</time>
      </trkpt>
      <trkpt lat="43.48875" lon="1.51375">
        <ele>220.60000610352</ele>
        <time>2020-06-03T07:34:58.000Z</time>
      </trkpt>
      <trkpt lat="43.48888" lon="1.51393">
        <ele>218.60000610352</ele>
        <time>2020-06-03T07:35:00.000Z</time>
      </trkpt>
      <trkpt lat="43.48893" lon="1.514">
        <ele>217.60000610352</ele>
        <time>2020-06-03T07:35:01.000Z</time>
      </trkpt>
      <trkpt lat="43.48899" lon="1.51408">
        <ele>216.39999389648</ele>
        <time>2020-06-03T07:35:02.000Z</time>
      </trkpt>
      <trkpt lat="43.48903" lon="1.51414">
        <ele>215.39999389648</ele>
        <time>2020-06-03T07:35:03.000Z</time>
      </trkpt>
      <trkpt lat="43.48908" lon="1.51421">
        <ele>214</ele>
        <time>2020-06-03T07:35:04.000Z</time>
      </trkpt>
      <trkpt lat="43.48916" lon="1.51432">
        <ele>212.19999694824</ele>
        <time>2020-06-03T07:35:06.000Z</time>
      </trkpt>
      <trkpt lat="43.48929" lon="1.51446">
        <ele>211.19999694824</ele>
        <time>2020-06-03T07:35:09.000Z</time>
      </trkpt>
      <trkpt lat="43.48933" lon="1.51451">
        <ele>211</ele>
        <time>2020-06-03T07:35:10.000Z</time>
      </trkpt>
      <trkpt lat="43.48947" lon="1.51474">
        <ele>210</ele>
        <time>2020-06-03T07:35:14.000Z</time>
      </trkpt>
      <trkpt lat="43.48959" lon="1.51497">
        <ele>209</ele>
        <time>2020-06-03T07:35:18.000Z</time>
      </trkpt>
      <trkpt lat="43.48989" lon="1.51542">
        <ele>207.80000305176</ele>
        <time>2020-06-03T07:35:25.000Z</time>
      </trkpt>
      <trkpt lat="43.49003" lon="1.51561">
        <ele>206.60000610352</ele>
        <time>2020-06-03T07:35:28.000Z</time>
      </trkpt>
      <trkpt lat="43.49014" lon="1.51576">
        <ele>205.39999389648</ele>
        <time>2020-06-03T07:35:31.000Z</time>
      </trkpt>
      <trkpt lat="43.49017" lon="1.5158">
        <ele>205.19999694824</ele>
        <time>2020-06-03T07:35:32.000Z</time>
      </trkpt>
      <trkpt lat="43.49022" lon="1.51588">
        <ele>204.19999694824</ele>
        <time>2020-06-03T07:35:34.000Z</time>
      </trkpt>
      <trkpt lat="43.4906" lon="1.51644">
        <ele>203</ele>
        <time>2020-06-03T07:35:44.000Z</time>
      </trkpt>
      <trkpt lat="43.49075" lon="1.51662">
        <ele>201.80000305176</ele>
        <time>2020-06-03T07:35:47.000Z</time>
      </trkpt>
      <trkpt lat="43.49086" lon="1.51675">
        <ele>200.80000305176</ele>
        <time>2020-06-03T07:35:49.000Z</time>
      </trkpt>
      <trkpt lat="43.4909" lon="1.51681">
        <ele>200</ele>
        <time>2020-06-03T07:35:50.000Z</time>
      </trkpt>
      <trkpt lat="43.49095" lon="1.51688">
        <ele>199.60000610352</ele>
        <time>2020-06-03T07:35:51.000Z</time>
      </trkpt>
      <trkpt lat="43.4911" lon="1.51708">
        <ele>198.60000610352</ele>
        <time>2020-06-03T07:35:54.000Z</time>
      </trkpt>
      <trkpt lat="43.49131" lon="1.51738">
        <ele>197.60000610352</ele>
        <time>2020-06-03T07:35:59.000Z</time>
      </trkpt>
      <trkpt lat="43.49165" lon="1.51792">
        <ele>197.19999694824</ele>
        <time>2020-06-03T07:36:14.000Z</time>
      </trkpt>
      <trkpt lat="43.49168" lon="1.51795">
        <ele>197.19999694824</ele>
        <time>2020-06-03T07:36:15.000Z</time>
      </trkpt>
      <trkpt lat="43.49178" lon="1.51806">
        <ele>196.39999389648</ele>
        <time>2020-06-03T07:36:18.000Z</time>
      </trkpt>
      <trkpt lat="43.49192" lon="1.51818">
        <ele>195.19999694824</ele>
        <time>2020-06-03T07:36:21.000Z</time>
      </trkpt>
      <trkpt lat="43.49209" lon="1.51833">
        <ele>194</ele>
        <time>2020-06-03T07:36:24.000Z</time>
      </trkpt>
      <trkpt lat="43.49228" lon="1.51849">
        <ele>192.80000305176</ele>
        <time>2020-06-03T07:36:27.000Z</time>
      </trkpt>
      <trkpt lat="43.49238" lon="1.51862">
        <ele>191.80000305176</ele>
        <time>2020-06-03T07:36:29.000Z</time>
      </trkpt>
      <trkpt lat="43.49253" lon="1.51888">
        <ele>190.39999389648</ele>
        <time>2020-06-03T07:36:32.000Z</time>
      </trkpt>
      <trkpt lat="43.49257" lon="1.51896">
        <ele>189.80000305176</ele>
        <time>2020-06-03T07:36:33.000Z</time>
      </trkpt>
      <trkpt lat="43.49266" lon="1.51911">
        <ele>189</ele>
        <time>2020-06-03T07:36:35.000Z</time>
      </trkpt>
      <trkpt lat="43.49276" lon="1.51925">
        <ele>186.39999389648</ele>
        <time>2020-06-03T07:36:37.000Z</time>
      </trkpt>
      <trkpt lat="43.49282" lon="1.51932">
        <ele>185.39999389648</ele>
        <time>2020-06-03T07:36:38.000Z</time>
      </trkpt>
      <trkpt lat="43.49294" lon="1.51945">
        <ele>183.80000305176</ele>
        <time>2020-06-03T07:36:40.000Z</time>
      </trkpt>
      <trkpt lat="43.49301" lon="1.5195">
        <ele>183.39999389648</ele>
        <time>2020-06-03T07:36:41.000Z</time>
      </trkpt>
      <trkpt lat="43.49315" lon="1.5196">
        <ele>182.39999389648</ele>
        <time>2020-06-03T07:36:43.000Z</time>
      </trkpt>
      <trkpt lat="43.49329" lon="1.51969">
        <ele>180.60000610352</ele>
        <time>2020-06-03T07:36:45.000Z</time>
      </trkpt>
      <trkpt lat="43.49342" lon="1.51978">
        <ele>179</ele>
        <time>2020-06-03T07:36:47.000Z</time>
      </trkpt>
      <trkpt lat="43.49354" lon="1.51989">
        <ele>177.60000610352</ele>
        <time>2020-06-03T07:36:49.000Z</time>
      </trkpt>
      <trkpt lat="43.49367" lon="1.52002">
        <ele>176.19999694824</ele>
        <time>2020-06-03T07:36:51.000Z</time>
      </trkpt>
      <trkpt lat="43.49379" lon="1.52017">
        <ele>175</ele>
        <time>2020-06-03T07:36:53.000Z</time>
      </trkpt>
      <trkpt lat="43.4939" lon="1.52034">
        <ele>173.60000610352</ele>
        <time>2020-06-03T07:36:55.000Z</time>
      </trkpt>
      <trkpt lat="43.49401" lon="1.52049">
        <ele>172.19999694824</ele>
        <time>2020-06-03T07:36:57.000Z</time>
      </trkpt>
      <trkpt lat="43.49411" lon="1.52063">
        <ele>170.80000305176</ele>
        <time>2020-06-03T07:36:59.000Z</time>
      </trkpt>
      <trkpt lat="43.49419" lon="1.52076">
        <ele>169.60000610352</ele>
        <time>2020-06-03T07:37:01.000Z</time>
      </trkpt>
      <trkpt lat="43.49432" lon="1.52096">
        <ele>168.60000610352</ele>
        <time>2020-06-03T07:37:05.000Z</time>
      </trkpt>
      <trkpt lat="43.49446" lon="1.52107">
        <ele>169.39999389648</ele>
        <time>2020-06-03T07:37:14.000Z</time>
      </trkpt>
      <trkpt lat="43.49448" lon="1.52109">
        <ele>170.19999694824</ele>
        <time>2020-06-03T07:37:53.000Z</time>
      </trkpt>
      <trkpt lat="43.49442" lon="1.5212">
        <ele>170.19999694824</ele>
        <time>2020-06-03T07:37:58.000Z</time>
      </trkpt>
      <trkpt lat="43.49417" lon="1.52154">
        <ele>169.80000305176</ele>
        <time>2020-06-03T07:38:16.000Z</time>
      </trkpt>
      <trkpt lat="43.49416" lon="1.52156">
        <ele>169.60000610352</ele>
        <time>2020-06-03T07:38:42.000Z</time>
      </trkpt>
      <trkpt lat="43.4942" lon="1.52178">
        <ele>169.60000610352</ele>
        <time>2020-06-03T07:38:48.000Z</time>
      </trkpt>
      <trkpt lat="43.49421" lon="1.52184">
        <ele>169.60000610352</ele>
        <time>2020-06-03T07:38:49.000Z</time>
      </trkpt>
      <trkpt lat="43.49424" lon="1.52202">
        <ele>169.19999694824</ele>
        <time>2020-06-03T07:38:52.000Z</time>
      </trkpt>
      <trkpt lat="43.49427" lon="1.5224">
        <ele>168</ele>
        <time>2020-06-03T07:38:58.000Z</time>
      </trkpt>
      <trkpt lat="43.49427" lon="1.52259">
        <ele>167.39999389648</ele>
        <time>2020-06-03T07:39:01.000Z</time>
      </trkpt>
      <trkpt lat="43.49423" lon="1.52291">
        <ele>167</ele>
        <time>2020-06-03T07:39:06.000Z</time>
      </trkpt>
      <trkpt lat="43.49412" lon="1.52365">
        <ele>166.60000610352</ele>
        <time>2020-06-03T07:39:18.000Z</time>
      </trkpt>
      <trkpt lat="43.49401" lon="1.52441">
        <ele>166.39999389648</ele>
        <time>2020-06-03T07:39:31.000Z</time>
      </trkpt>
      <trkpt lat="43.49384" lon="1.52506">
        <ele>166</ele>
        <time>2020-06-03T07:39:41.000Z</time>
      </trkpt>
      <trkpt lat="43.49375" lon="1.52539">
        <ele>165.60000610352</ele>
        <time>2020-06-03T07:39:46.000Z</time>
      </trkpt>
      <trkpt lat="43.49364" lon="1.52599">
        <ele>165</ele>
        <time>2020-06-03T07:39:55.000Z</time>
      </trkpt>
      <trkpt lat="43.49362" lon="1.52672">
        <ele>164.80000305176</ele>
        <time>2020-06-03T07:40:05.000Z</time>
      </trkpt>
      <trkpt lat="43.49366" lon="1.52712">
        <ele>164.39999389648</ele>
        <time>2020-06-03T07:40:11.000Z</time>
      </trkpt>
      <trkpt lat="43.49388" lon="1.52787">
        <ele>164</ele>
        <time>2020-06-03T07:40:23.000Z</time>
      </trkpt>
      <trkpt lat="43.49398" lon="1.52816">
        <ele>164</ele>
        <time>2020-06-03T07:40:28.000Z</time>
      </trkpt>
      <trkpt lat="43.49415" lon="1.52868">
        <ele>163.80000305176</ele>
        <time>2020-06-03T07:40:37.000Z</time>
      </trkpt>
      <trkpt lat="43.49426" lon="1.5294">
        <ele>163.80000305176</ele>
        <time>2020-06-03T07:40:49.000Z</time>
      </trkpt>
      <trkpt lat="43.49421" lon="1.52963">
        <ele>163.80000305176</ele>
        <time>2020-06-03T07:40:54.000Z</time>
      </trkpt>
      <trkpt lat="43.494" lon="1.53033">
        <ele>163.80000305176</ele>
        <time>2020-06-03T07:41:07.000Z</time>
      </trkpt>
      <trkpt lat="43.49384" lon="1.53107">
        <ele>163.80000305176</ele>
        <time>2020-06-03T07:41:23.000Z</time>
      </trkpt>
      <trkpt lat="43.4939" lon="1.53179">
        <ele>163.60000610352</ele>
        <time>2020-06-03T07:41:38.000Z</time>
      </trkpt>
      <trkpt lat="43.49423" lon="1.53238">
        <ele>163.39999389648</ele>
        <time>2020-06-03T07:41:54.000Z</time>
      </trkpt>
      <trkpt lat="43.49427" lon="1.53246">
        <ele>163.19999694824</ele>
        <time>2020-06-03T07:41:56.000Z</time>
      </trkpt>
      <trkpt lat="43.49469" lon="1.53299">
        <ele>163</ele>
        <time>2020-06-03T07:42:11.000Z</time>
      </trkpt>
      <trkpt lat="43.49505" lon="1.53353">
        <ele>162.60000610352</ele>
        <time>2020-06-03T07:42:26.000Z</time>
      </trkpt>
      <trkpt lat="43.49533" lon="1.53419">
        <ele>162.39999389648</ele>
        <time>2020-06-03T07:42:42.000Z</time>
      </trkpt>
      <trkpt lat="43.49552" lon="1.53472">
        <ele>162.19999694824</ele>
        <time>2020-06-03T07:42:53.000Z</time>
      </trkpt>
      <trkpt lat="43.49581" lon="1.53534">
        <ele>162.39999389648</ele>
        <time>2020-06-03T07:43:08.000Z</time>
      </trkpt>
      <trkpt lat="43.49604" lon="1.53573">
        <ele>163.39999389648</ele>
        <time>2020-06-03T07:43:20.000Z</time>
      </trkpt>
      <trkpt lat="43.49625" lon="1.53555">
        <ele>163.19999694824</ele>
        <time>2020-06-03T07:43:29.000Z</time>
      </trkpt>
      <trkpt lat="43.49666" lon="1.53506">
        <ele>161.39999389648</ele>
        <time>2020-06-03T07:43:41.000Z</time>
      </trkpt>
      <trkpt lat="43.49669" lon="1.53502">
        <ele>161.39999389648</ele>
        <time>2020-06-03T07:43:42.000Z</time>
      </trkpt>
      <trkpt lat="43.497" lon="1.53457">
        <ele>161</ele>
        <time>2020-06-03T07:43:52.000Z</time>
      </trkpt>
      <trkpt lat="43.49708" lon="1.53444">
        <ele>161</ele>
        <time>2020-06-03T07:43:55.000Z</time>
      </trkpt>
      <trkpt lat="43.49737" lon="1.53386">
        <ele>161</ele>
        <time>2020-06-03T07:44:07.000Z</time>
      </trkpt>
      <trkpt lat="43.49744" lon="1.53371">
        <ele>161.19999694824</ele>
        <time>2020-06-03T07:44:10.000Z</time>
      </trkpt>
      <trkpt lat="43.4978" lon="1.53311">
        <ele>161</ele>
        <time>2020-06-03T07:44:22.000Z</time>
      </trkpt>
      <trkpt lat="43.4981" lon="1.53271">
        <ele>160.80000305176</ele>
        <time>2020-06-03T07:44:30.000Z</time>
      </trkpt>
      <trkpt lat="43.49835" lon="1.53237">
        <ele>160.39999389648</ele>
        <time>2020-06-03T07:44:37.000Z</time>
      </trkpt>
      <trkpt lat="43.49883" lon="1.53187">
        <ele>160</ele>
        <time>2020-06-03T07:44:48.000Z</time>
      </trkpt>
      <trkpt lat="43.49929" lon="1.53148">
        <ele>161</ele>
        <time>2020-06-03T07:45:00.000Z</time>
      </trkpt>
      <trkpt lat="43.49933" lon="1.53144">
        <ele>161.19999694824</ele>
        <time>2020-06-03T07:45:01.000Z</time>
      </trkpt>
      <trkpt lat="43.49941" lon="1.53137">
        <ele>161.39999389648</ele>
        <time>2020-06-03T07:45:03.000Z</time>
      </trkpt>
      <trkpt lat="43.49946" lon="1.53133">
        <ele>161.39999389648</ele>
        <time>2020-06-03T07:45:04.000Z</time>
      </trkpt>
      <trkpt lat="43.49991" lon="1.53091">
        <ele>161.39999389648</ele>
        <time>2020-06-03T07:45:15.000Z</time>
      </trkpt>
      <trkpt lat="43.5" lon="1.53083">
        <ele>161.19999694824</ele>
        <time>2020-06-03T07:45:17.000Z</time>
      </trkpt>
      <trkpt lat="43.50029" lon="1.5305">
        <ele>161</ele>
        <time>2020-06-03T07:45:25.000Z</time>
      </trkpt>
      <trkpt lat="43.50066" lon="1.53002">
        <ele>161</ele>
        <time>2020-06-03T07:45:38.000Z</time>
      </trkpt>
      <trkpt lat="43.50099" lon="1.52962">
        <ele>160.60000610352</ele>
        <time>2020-06-03T07:45:48.000Z</time>
      </trkpt>
      <trkpt lat="43.50125" lon="1.52933">
        <ele>160.80000305176</ele>
        <time>2020-06-03T07:45:57.000Z</time>
      </trkpt>
      <trkpt lat="43.50143" lon="1.52917">
        <ele>161</ele>
        <time>2020-06-03T07:46:02.000Z</time>
      </trkpt>
      <trkpt lat="43.50192" lon="1.5288">
        <ele>161.39999389648</ele>
        <time>2020-06-03T07:46:14.000Z</time>
      </trkpt>
      <trkpt lat="43.50207" lon="1.52867">
        <ele>161.39999389648</ele>
        <time>2020-06-03T07:46:18.000Z</time>
      </trkpt>
      <trkpt lat="43.50214" lon="1.5286">
        <ele>161.39999389648</ele>
        <time>2020-06-03T07:46:20.000Z</time>
      </trkpt>
      <trkpt lat="43.50237" lon="1.5284">
        <ele>161</ele>
        <time>2020-06-03T07:46:26.000Z</time>
      </trkpt>
      <trkpt lat="43.50255" lon="1.52823">
        <ele>161</ele>
        <time>2020-06-03T07:46:31.000Z</time>
      </trkpt>
      <trkpt lat="43.50274" lon="1.52805">
        <ele>160.80000305176</ele>
        <time>2020-06-03T07:46:36.000Z</time>
      </trkpt>
      <trkpt lat="43.50285" lon="1.52794">
        <ele>160.80000305176</ele>
        <time>2020-06-03T07:46:39.000Z</time>
      </trkpt>
      <trkpt lat="43.503" lon="1.52778">
        <ele>160.80000305176</ele>
        <time>2020-06-03T07:46:43.000Z</time>
      </trkpt>
      <trkpt lat="43.50306" lon="1.52769">
        <ele>160.80000305176</ele>
        <time>2020-06-03T07:46:45.000Z</time>
      </trkpt>
      <trkpt lat="43.50326" lon="1.52747">
        <ele>160.80000305176</ele>
        <time>2020-06-03T07:46:50.000Z</time>
      </trkpt>
      <trkpt lat="43.5035" lon="1.52714">
        <ele>161</ele>
        <time>2020-06-03T07:46:57.000Z</time>
      </trkpt>
      <trkpt lat="43.50363" lon="1.52693">
        <ele>161</ele>
        <time>2020-06-03T07:47:01.000Z</time>
      </trkpt>
      <trkpt lat="43.50372" lon="1.52662">
        <ele>160.80000305176</ele>
        <time>2020-06-03T07:47:06.000Z</time>
      </trkpt>
      <trkpt lat="43.50373" lon="1.52658">
        <ele>160.80000305176</ele>
        <time>2020-06-03T07:47:07.000Z</time>
      </trkpt>
      <trkpt lat="43.50385" lon="1.5262">
        <ele>161.19999694824</ele>
        <time>2020-06-03T07:47:14.000Z</time>
      </trkpt>
      <trkpt lat="43.50388" lon="1.52609">
        <ele>161.39999389648</ele>
        <time>2020-06-03T07:47:16.000Z</time>
      </trkpt>
      <trkpt lat="43.504" lon="1.52556">
        <ele>161.39999389648</ele>
        <time>2020-06-03T07:47:25.000Z</time>
      </trkpt>
      <trkpt lat="43.50407" lon="1.52524">
        <ele>161.39999389648</ele>
        <time>2020-06-03T07:47:30.000Z</time>
      </trkpt>
      <trkpt lat="43.5041" lon="1.52512">
        <ele>161.39999389648</ele>
        <time>2020-06-03T07:47:32.000Z</time>
      </trkpt>
      <trkpt lat="43.50414" lon="1.52502">
        <ele>161.19999694824</ele>
        <time>2020-06-03T07:47:34.000Z</time>
      </trkpt>
      <trkpt lat="43.50419" lon="1.5248">
        <ele>160.80000305176</ele>
        <time>2020-06-03T07:47:38.000Z</time>
      </trkpt>
      <trkpt lat="43.50426" lon="1.52446">
        <ele>160.80000305176</ele>
        <time>2020-06-03T07:47:44.000Z</time>
      </trkpt>
      <trkpt lat="43.50428" lon="1.52433">
        <ele>160.60000610352</ele>
        <time>2020-06-03T07:47:46.000Z</time>
      </trkpt>
      <trkpt lat="43.50428" lon="1.52398">
        <ele>160.80000305176</ele>
        <time>2020-06-03T07:47:50.000Z</time>
      </trkpt>
      <trkpt lat="43.50427" lon="1.52371">
        <ele>160.60000610352</ele>
        <time>2020-06-03T07:47:53.000Z</time>
      </trkpt>
      <trkpt lat="43.50431" lon="1.52308">
        <ele>160.80000305176</ele>
        <time>2020-06-03T07:48:02.000Z</time>
      </trkpt>
      <trkpt lat="43.50428" lon="1.5225">
        <ele>160.80000305176</ele>
        <time>2020-06-03T07:48:11.000Z</time>
      </trkpt>
      <trkpt lat="43.50431" lon="1.52225">
        <ele>161</ele>
        <time>2020-06-03T07:48:15.000Z</time>
      </trkpt>
      <trkpt lat="43.50435" lon="1.52209">
        <ele>161</ele>
        <time>2020-06-03T07:48:18.000Z</time>
      </trkpt>
      <trkpt lat="43.50438" lon="1.52197">
        <ele>161</ele>
        <time>2020-06-03T07:48:20.000Z</time>
      </trkpt>
      <trkpt lat="43.5045" lon="1.52176">
        <ele>161</ele>
        <time>2020-06-03T07:48:24.000Z</time>
      </trkpt>
      <trkpt lat="43.50472" lon="1.52144">
        <ele>160.80000305176</ele>
        <time>2020-06-03T07:48:30.000Z</time>
      </trkpt>
      <trkpt lat="43.50504" lon="1.52109">
        <ele>160.39999389648</ele>
        <time>2020-06-03T07:48:38.000Z</time>
      </trkpt>
      <trkpt lat="43.50512" lon="1.52103">
        <ele>160.19999694824</ele>
        <time>2020-06-03T07:48:40.000Z</time>
      </trkpt>
      <trkpt lat="43.50567" lon="1.52085">
        <ele>160.19999694824</ele>
        <time>2020-06-03T07:48:52.000Z</time>
      </trkpt>
      <trkpt lat="43.50625" lon="1.52076">
        <ele>160.39999389648</ele>
        <time>2020-06-03T07:49:04.000Z</time>
      </trkpt>
      <trkpt lat="43.50655" lon="1.52071">
        <ele>160.60000610352</ele>
        <time>2020-06-03T07:49:11.000Z</time>
      </trkpt>
      <trkpt lat="43.5071" lon="1.52052">
        <ele>160.60000610352</ele>
        <time>2020-06-03T07:49:23.000Z</time>
      </trkpt>
      <trkpt lat="43.50735" lon="1.52036">
        <ele>160.60000610352</ele>
        <time>2020-06-03T07:49:29.000Z</time>
      </trkpt>
      <trkpt lat="43.50747" lon="1.52026">
        <ele>160.60000610352</ele>
        <time>2020-06-03T07:49:32.000Z</time>
      </trkpt>
      <trkpt lat="43.50781" lon="1.51995">
        <ele>160.80000305176</ele>
        <time>2020-06-03T07:49:40.000Z</time>
      </trkpt>
      <trkpt lat="43.50795" lon="1.51979">
        <ele>160.80000305176</ele>
        <time>2020-06-03T07:49:44.000Z</time>
      </trkpt>
      <trkpt lat="43.50809" lon="1.51962">
        <ele>161</ele>
        <time>2020-06-03T07:49:48.000Z</time>
      </trkpt>
      <trkpt lat="43.50828" lon="1.51939">
        <ele>161.19999694824</ele>
        <time>2020-06-03T07:49:54.000Z</time>
      </trkpt>
      <trkpt lat="43.50858" lon="1.51902">
        <ele>161.80000305176</ele>
        <time>2020-06-03T07:50:03.000Z</time>
      </trkpt>
      <trkpt lat="43.50876" lon="1.51881">
        <ele>162</ele>
        <time>2020-06-03T07:50:09.000Z</time>
      </trkpt>
      <trkpt lat="43.50917" lon="1.51843">
        <ele>162.19999694824</ele>
        <time>2020-06-03T07:50:20.000Z</time>
      </trkpt>
      <trkpt lat="43.50964" lon="1.51801">
        <ele>161.19999694824</ele>
        <time>2020-06-03T07:50:32.000Z</time>
      </trkpt>
      <trkpt lat="43.51013" lon="1.5178">
        <ele>161.60000610352</ele>
        <time>2020-06-03T07:50:45.000Z</time>
      </trkpt>
      <trkpt lat="43.51028" lon="1.51775">
        <ele>161.60000610352</ele>
        <time>2020-06-03T07:50:49.000Z</time>
      </trkpt>
      <trkpt lat="43.51053" lon="1.51766">
        <ele>161.60000610352</ele>
        <time>2020-06-03T07:50:55.000Z</time>
      </trkpt>
      <trkpt lat="43.51088" lon="1.51754">
        <ele>161</ele>
        <time>2020-06-03T07:51:04.000Z</time>
      </trkpt>
      <trkpt lat="43.511" lon="1.51753">
        <ele>161</ele>
        <time>2020-06-03T07:51:08.000Z</time>
      </trkpt>
      <trkpt lat="43.51112" lon="1.51747">
        <ele>161</ele>
        <time>2020-06-03T07:51:13.000Z</time>
      </trkpt>
      <trkpt lat="43.51129" lon="1.51739">
        <ele>162.19999694824</ele>
        <time>2020-06-03T07:51:20.000Z</time>
      </trkpt>
      <trkpt lat="43.51141" lon="1.51735">
        <ele>162.39999389648</ele>
        <time>2020-06-03T07:51:25.000Z</time>
      </trkpt>
      <trkpt lat="43.51159" lon="1.51733">
        <ele>162.39999389648</ele>
        <time>2020-06-03T07:51:30.000Z</time>
      </trkpt>
      <trkpt lat="43.51163" lon="1.51732">
        <ele>162.19999694824</ele>
        <time>2020-06-03T07:51:31.000Z</time>
      </trkpt>
      <trkpt lat="43.5117" lon="1.51731">
        <ele>161.19999694824</ele>
        <time>2020-06-03T07:51:33.000Z</time>
      </trkpt>
      <trkpt lat="43.51174" lon="1.5173">
        <ele>160.80000305176</ele>
        <time>2020-06-03T07:51:34.000Z</time>
      </trkpt>
      <trkpt lat="43.51192" lon="1.51725">
        <ele>159.80000305176</ele>
        <time>2020-06-03T07:51:39.000Z</time>
      </trkpt>
      <trkpt lat="43.512" lon="1.51723">
        <ele>159.80000305176</ele>
        <time>2020-06-03T07:51:41.000Z</time>
      </trkpt>
      <trkpt lat="43.51215" lon="1.51718">
        <ele>159.60000610352</ele>
        <time>2020-06-03T07:51:44.000Z</time>
      </trkpt>
      <trkpt lat="43.51275" lon="1.517">
        <ele>159.60000610352</ele>
        <time>2020-06-03T07:51:55.000Z</time>
      </trkpt>
      <trkpt lat="43.5128" lon="1.51699">
        <ele>159.60000610352</ele>
        <time>2020-06-03T07:51:56.000Z</time>
      </trkpt>
      <trkpt lat="43.51342" lon="1.51682">
        <ele>159.80000305176</ele>
        <time>2020-06-03T07:52:08.000Z</time>
      </trkpt>
      <trkpt lat="43.51398" lon="1.51665">
        <ele>159.80000305176</ele>
        <time>2020-06-03T07:52:20.000Z</time>
      </trkpt>
      <trkpt lat="43.51419" lon="1.5166">
        <ele>159.80000305176</ele>
        <time>2020-06-03T07:52:25.000Z</time>
      </trkpt>
      <trkpt lat="43.51437" lon="1.51664">
        <ele>159.80000305176</ele>
        <time>2020-06-03T07:52:29.000Z</time>
      </trkpt>
      <trkpt lat="43.51463" lon="1.5169">
        <ele>159.60000610352</ele>
        <time>2020-06-03T07:52:36.000Z</time>
      </trkpt>
      <trkpt lat="43.5147" lon="1.51705">
        <ele>159.39999389648</ele>
        <time>2020-06-03T07:52:39.000Z</time>
      </trkpt>
      <trkpt lat="43.5148" lon="1.51733">
        <ele>159.19999694824</ele>
        <time>2020-06-03T07:52:44.000Z</time>
      </trkpt>
      <trkpt lat="43.51481" lon="1.51743">
        <ele>159.19999694824</ele>
        <time>2020-06-03T07:52:46.000Z</time>
      </trkpt>
      <trkpt lat="43.5148" lon="1.51754">
        <ele>159.19999694824</ele>
        <time>2020-06-03T07:52:48.000Z</time>
      </trkpt>
      <trkpt lat="43.51479" lon="1.51763">
        <ele>159.19999694824</ele>
        <time>2020-06-03T07:52:50.000Z</time>
      </trkpt>
      <trkpt lat="43.51474" lon="1.51783">
        <ele>159.19999694824</ele>
        <time>2020-06-03T07:52:54.000Z</time>
      </trkpt>
      <trkpt lat="43.51474" lon="1.51788">
        <ele>159.19999694824</ele>
        <time>2020-06-03T07:52:55.000Z</time>
      </trkpt>
      <trkpt lat="43.51472" lon="1.51802">
        <ele>159.19999694824</ele>
        <time>2020-06-03T07:52:58.000Z</time>
      </trkpt>
      <trkpt lat="43.51474" lon="1.51819">
        <ele>159</ele>
        <time>2020-06-03T07:53:01.000Z</time>
      </trkpt>
      <trkpt lat="43.51475" lon="1.51842">
        <ele>159</ele>
        <time>2020-06-03T07:53:04.000Z</time>
      </trkpt>
      <trkpt lat="43.51476" lon="1.51866">
        <ele>159</ele>
        <time>2020-06-03T07:53:07.000Z</time>
      </trkpt>
      <trkpt lat="43.5148" lon="1.51901">
        <ele>158.80000305176</ele>
        <time>2020-06-03T07:53:12.000Z</time>
      </trkpt>
      <trkpt lat="43.5149" lon="1.51924">
        <ele>158.60000610352</ele>
        <time>2020-06-03T07:53:16.000Z</time>
      </trkpt>
      <trkpt lat="43.51509" lon="1.51958">
        <ele>158.60000610352</ele>
        <time>2020-06-03T07:53:23.000Z</time>
      </trkpt>
      <trkpt lat="43.51537" lon="1.51992">
        <ele>158.60000610352</ele>
        <time>2020-06-03T07:53:31.000Z</time>
      </trkpt>
      <trkpt lat="43.51578" lon="1.52046">
        <ele>158.60000610352</ele>
        <time>2020-06-03T07:53:43.000Z</time>
      </trkpt>
      <trkpt lat="43.51595" lon="1.52058">
        <ele>158.60000610352</ele>
        <time>2020-06-03T07:53:47.000Z</time>
      </trkpt>
      <trkpt lat="43.51627" lon="1.52063">
        <ele>158.80000305176</ele>
        <time>2020-06-03T07:53:54.000Z</time>
      </trkpt>
      <trkpt lat="43.51685" lon="1.52046">
        <ele>159</ele>
        <time>2020-06-03T07:54:06.000Z</time>
      </trkpt>
      <trkpt lat="43.51704" lon="1.5204">
        <ele>159</ele>
        <time>2020-06-03T07:54:10.000Z</time>
      </trkpt>
      <trkpt lat="43.51731" lon="1.52022">
        <ele>158.80000305176</ele>
        <time>2020-06-03T07:54:16.000Z</time>
      </trkpt>
      <trkpt lat="43.51753" lon="1.52007">
        <ele>158.60000610352</ele>
        <time>2020-06-03T07:54:21.000Z</time>
      </trkpt>
      <trkpt lat="43.51766" lon="1.51998">
        <ele>158.39999389648</ele>
        <time>2020-06-03T07:54:24.000Z</time>
      </trkpt>
      <trkpt lat="43.51787" lon="1.51987">
        <ele>158.19999694824</ele>
        <time>2020-06-03T07:54:28.000Z</time>
      </trkpt>
      <trkpt lat="43.51803" lon="1.51981">
        <ele>158.19999694824</ele>
        <time>2020-06-03T07:54:31.000Z</time>
      </trkpt>
      <trkpt lat="43.51813" lon="1.5198">
        <ele>158.19999694824</ele>
        <time>2020-06-03T07:54:33.000Z</time>
      </trkpt>
      <trkpt lat="43.51866" lon="1.51997">
        <ele>158.19999694824</ele>
        <time>2020-06-03T07:54:43.000Z</time>
      </trkpt>
      <trkpt lat="43.51914" lon="1.52016">
        <ele>158.19999694824</ele>
        <time>2020-06-03T07:54:51.000Z</time>
      </trkpt>
      <trkpt lat="43.51962" lon="1.52025">
        <ele>158.19999694824</ele>
        <time>2020-06-03T07:55:00.000Z</time>
      </trkpt>
      <trkpt lat="43.51982" lon="1.52023">
        <ele>158.19999694824</ele>
        <time>2020-06-03T07:55:04.000Z</time>
      </trkpt>
      <trkpt lat="43.52001" lon="1.52021">
        <ele>158.60000610352</ele>
        <time>2020-06-03T07:55:08.000Z</time>
      </trkpt>
      <trkpt lat="43.5202" lon="1.52015">
        <ele>158.60000610352</ele>
        <time>2020-06-03T07:55:12.000Z</time>
      </trkpt>
      <trkpt lat="43.52039" lon="1.52004">
        <ele>158.60000610352</ele>
        <time>2020-06-03T07:55:16.000Z</time>
      </trkpt>
      <trkpt lat="43.52079" lon="1.5198">
        <ele>158.39999389648</ele>
        <time>2020-06-03T07:55:23.000Z</time>
      </trkpt>
      <trkpt lat="43.52124" lon="1.51963">
        <ele>158.19999694824</ele>
        <time>2020-06-03T07:55:32.000Z</time>
      </trkpt>
      <trkpt lat="43.52147" lon="1.51962">
        <ele>158.19999694824</ele>
        <time>2020-06-03T07:55:37.000Z</time>
      </trkpt>
      <trkpt lat="43.52203" lon="1.51951">
        <ele>158.60000610352</ele>
        <time>2020-06-03T07:55:48.000Z</time>
      </trkpt>
      <trkpt lat="43.52267" lon="1.51928">
        <ele>159</ele>
        <time>2020-06-03T07:56:00.000Z</time>
      </trkpt>
      <trkpt lat="43.52325" lon="1.51903">
        <ele>158.39999389648</ele>
        <time>2020-06-03T07:56:13.000Z</time>
      </trkpt>
      <trkpt lat="43.52366" lon="1.51886">
        <ele>158.39999389648</ele>
        <time>2020-06-03T07:56:26.000Z</time>
      </trkpt>
      <trkpt lat="43.52372" lon="1.51885">
        <ele>158.60000610352</ele>
        <time>2020-06-03T07:59:47.000Z</time>
      </trkpt>
      <trkpt lat="43.52388" lon="1.51881">
        <ele>158.80000305176</ele>
        <time>2020-06-03T07:59:56.000Z</time>
      </trkpt>
      <trkpt lat="43.52393" lon="1.5188">
        <ele>159.39999389648</ele>
        <time>2020-06-03T08:00:15.000Z</time>
      </trkpt>
      <trkpt lat="43.52404" lon="1.5187">
        <ele>159.39999389648</ele>
        <time>2020-06-03T08:00:22.000Z</time>
      </trkpt>
      <trkpt lat="43.52398" lon="1.51836">
        <ele>159.60000610352</ele>
        <time>2020-06-03T08:00:35.000Z</time>
      </trkpt>
      <trkpt lat="43.52397" lon="1.51835">
        <ele>159.60000610352</ele>
        <time>2020-06-03T08:00:37.000Z</time>
      </trkpt>
      <trkpt lat="43.52395" lon="1.51835">
        <ele>159.60000610352</ele>
        <time>2020-06-03T08:00:39.000Z</time>
      </trkpt>
      <trkpt lat="43.52366" lon="1.51824">
        <ele>159</ele>
        <time>2020-06-03T08:00:48.000Z</time>
      </trkpt>
      <trkpt lat="43.52358" lon="1.51823">
        <ele>158.19999694824</ele>
        <time>2020-06-03T08:00:50.000Z</time>
      </trkpt>
      <trkpt lat="43.5235" lon="1.51811">
        <ele>157.80000305176</ele>
        <time>2020-06-03T08:00:53.000Z</time>
      </trkpt>
      <trkpt lat="43.52345" lon="1.51803">
        <ele>157.19999694824</ele>
        <time>2020-06-03T08:00:55.000Z</time>
      </trkpt>
      <trkpt lat="43.52303" lon="1.51757">
        <ele>157</ele>
        <time>2020-06-03T08:01:11.000Z</time>
      </trkpt>
      <trkpt lat="43.52278" lon="1.51762">
        <ele>157.80000305176</ele>
        <time>2020-06-03T08:01:18.000Z</time>
      </trkpt>
      <trkpt lat="43.52222" lon="1.51742">
        <ele>157.39999389648</ele>
        <time>2020-06-03T08:01:32.000Z</time>
      </trkpt>
      <trkpt lat="43.52208" lon="1.51734">
        <ele>157.19999694824</ele>
        <time>2020-06-03T08:01:36.000Z</time>
      </trkpt>
      <trkpt lat="43.52196" lon="1.51719">
        <ele>157.19999694824</ele>
        <time>2020-06-03T08:01:40.000Z</time>
      </trkpt>
      <trkpt lat="43.52193" lon="1.51714">
        <ele>157.19999694824</ele>
        <time>2020-06-03T08:01:41.000Z</time>
      </trkpt>
      <trkpt lat="43.52179" lon="1.51705">
        <ele>157</ele>
        <time>2020-06-03T08:01:45.000Z</time>
      </trkpt>
      <trkpt lat="43.52171" lon="1.51701">
        <ele>157</ele>
        <time>2020-06-03T08:01:47.000Z</time>
      </trkpt>
      <trkpt lat="43.5213" lon="1.51658">
        <ele>157</ele>
        <time>2020-06-03T08:02:00.000Z</time>
      </trkpt>
      <trkpt lat="43.52091" lon="1.51606">
        <ele>157.39999389648</ele>
        <time>2020-06-03T08:02:13.000Z</time>
      </trkpt>
      <trkpt lat="43.52042" lon="1.51567">
        <ele>158.19999694824</ele>
        <time>2020-06-03T08:02:25.000Z</time>
      </trkpt>
      <trkpt lat="43.51998" lon="1.51551">
        <ele>158.19999694824</ele>
        <time>2020-06-03T08:02:34.000Z</time>
      </trkpt>
      <trkpt lat="43.51975" lon="1.51518">
        <ele>158</ele>
        <time>2020-06-03T08:02:41.000Z</time>
      </trkpt>
      <trkpt lat="43.51952" lon="1.51447">
        <ele>157.60000610352</ele>
        <time>2020-06-03T08:02:52.000Z</time>
      </trkpt>
      <trkpt lat="43.5195" lon="1.51372">
        <ele>157.39999389648</ele>
        <time>2020-06-03T08:03:03.000Z</time>
      </trkpt>
      <trkpt lat="43.51974" lon="1.51315">
        <ele>157.60000610352</ele>
        <time>2020-06-03T08:03:15.000Z</time>
      </trkpt>
      <trkpt lat="43.51989" lon="1.51324">
        <ele>157.80000305176</ele>
        <time>2020-06-03T08:03:19.000Z</time>
      </trkpt>
      <trkpt lat="43.52039" lon="1.51352">
        <ele>158.19999694824</ele>
        <time>2020-06-03T08:03:32.000Z</time>
      </trkpt>
      <trkpt lat="43.52086" lon="1.51355">
        <ele>158.60000610352</ele>
        <time>2020-06-03T08:03:43.000Z</time>
      </trkpt>
      <trkpt lat="43.5209" lon="1.51356">
        <ele>158.80000305176</ele>
        <time>2020-06-03T08:03:44.000Z</time>
      </trkpt>
      <trkpt lat="43.52137" lon="1.51385">
        <ele>159.19999694824</ele>
        <time>2020-06-03T08:03:57.000Z</time>
      </trkpt>
      <trkpt lat="43.52137" lon="1.51335">
        <ele>158.80000305176</ele>
        <time>2020-06-03T08:04:06.000Z</time>
      </trkpt>
      <trkpt lat="43.52131" lon="1.51324">
        <ele>158.80000305176</ele>
        <time>2020-06-03T08:04:08.000Z</time>
      </trkpt>
      <trkpt lat="43.52129" lon="1.51297">
        <ele>158.60000610352</ele>
        <time>2020-06-03T08:04:12.000Z</time>
      </trkpt>
      <trkpt lat="43.52129" lon="1.51216">
        <ele>158</ele>
        <time>2020-06-03T08:04:24.000Z</time>
      </trkpt>
      <trkpt lat="43.52127" lon="1.51177">
        <ele>157.60000610352</ele>
        <time>2020-06-03T08:04:30.000Z</time>
      </trkpt>
      <trkpt lat="43.52127" lon="1.5117">
        <ele>157.60000610352</ele>
        <time>2020-06-03T08:04:31.000Z</time>
      </trkpt>
      <trkpt lat="43.52163" lon="1.51129">
        <ele>157.80000305176</ele>
        <time>2020-06-03T08:04:43.000Z</time>
      </trkpt>
      <trkpt lat="43.52219" lon="1.51128">
        <ele>157.80000305176</ele>
        <time>2020-06-03T08:04:55.000Z</time>
      </trkpt>
      <trkpt lat="43.52274" lon="1.51128">
        <ele>158.39999389648</ele>
        <time>2020-06-03T08:05:08.000Z</time>
      </trkpt>
      <trkpt lat="43.52296" lon="1.51119">
        <ele>158.39999389648</ele>
        <time>2020-06-03T08:05:13.000Z</time>
      </trkpt>
      <trkpt lat="43.52344" lon="1.51078">
        <ele>157.80000305176</ele>
        <time>2020-06-03T08:05:24.000Z</time>
      </trkpt>
      <trkpt lat="43.52395" lon="1.51041">
        <ele>158</ele>
        <time>2020-06-03T08:05:39.000Z</time>
      </trkpt>
      <trkpt lat="43.52405" lon="1.51047">
        <ele>158.60000610352</ele>
        <time>2020-06-03T08:05:45.000Z</time>
      </trkpt>
      <trkpt lat="43.52411" lon="1.51047">
        <ele>159</ele>
        <time>2020-06-03T08:05:50.000Z</time>
      </trkpt>
      <trkpt lat="43.52412" lon="1.51047">
        <ele>159.19999694824</ele>
        <time>2020-06-03T08:05:54.000Z</time>
      </trkpt>
      <trkpt lat="43.52412" lon="1.51046">
        <ele>159.19999694824</ele>
        <time>2020-06-03T08:05:56.000Z</time>
      </trkpt>
      <trkpt lat="43.52412" lon="1.51046">
        <ele>159.19999694824</ele>
        <time>2020-06-03T08:05:59.000Z</time>
      </trkpt>
      <trkpt lat="43.52412" lon="1.51045">
        <ele>159.19999694824</ele>
        <time>2020-06-03T08:06:00.000Z</time>
      </trkpt>
      <trkpt lat="43.52407" lon="1.51034">
        <ele>159.39999389648</ele>
        <time>2020-06-03T08:10:38.000Z</time>
      </trkpt>
      <trkpt lat="43.52419" lon="1.50963">
        <ele>159.19999694824</ele>
        <time>2020-06-03T08:10:56.000Z</time>
      </trkpt>
      <trkpt lat="43.52434" lon="1.50888">
        <ele>159.19999694824</ele>
        <time>2020-06-03T08:11:10.000Z</time>
      </trkpt>
      <trkpt lat="43.52451" lon="1.50814">
        <ele>158.39999389648</ele>
        <time>2020-06-03T08:11:23.000Z</time>
      </trkpt>
      <trkpt lat="43.52458" lon="1.50786">
        <ele>158</ele>
        <time>2020-06-03T08:11:28.000Z</time>
      </trkpt>
      <trkpt lat="43.52463" lon="1.50762">
        <ele>157.80000305176</ele>
        <time>2020-06-03T08:11:32.000Z</time>
      </trkpt>
      <trkpt lat="43.52473" lon="1.50706">
        <ele>156.80000305176</ele>
        <time>2020-06-03T08:11:41.000Z</time>
      </trkpt>
      <trkpt lat="43.52476" lon="1.50689">
        <ele>156.60000610352</ele>
        <time>2020-06-03T08:11:44.000Z</time>
      </trkpt>
      <trkpt lat="43.52469" lon="1.50652">
        <ele>156.39999389648</ele>
        <time>2020-06-03T08:11:50.000Z</time>
      </trkpt>
      <trkpt lat="43.52443" lon="1.50583">
        <ele>156.60000610352</ele>
        <time>2020-06-03T08:12:02.000Z</time>
      </trkpt>
      <trkpt lat="43.52417" lon="1.50516">
        <ele>156.80000305176</ele>
        <time>2020-06-03T08:12:14.000Z</time>
      </trkpt>
      <trkpt lat="43.52415" lon="1.5051">
        <ele>156.80000305176</ele>
        <time>2020-06-03T08:12:15.000Z</time>
      </trkpt>
      <trkpt lat="43.52417" lon="1.50475">
        <ele>157</ele>
        <time>2020-06-03T08:12:21.000Z</time>
      </trkpt>
      <trkpt lat="43.5243" lon="1.50418">
        <ele>156.39999389648</ele>
        <time>2020-06-03T08:12:30.000Z</time>
      </trkpt>
      <trkpt lat="43.52426" lon="1.50384">
        <ele>156.19999694824</ele>
        <time>2020-06-03T08:12:35.000Z</time>
      </trkpt>
      <trkpt lat="43.52405" lon="1.50328">
        <ele>156.19999694824</ele>
        <time>2020-06-03T08:12:46.000Z</time>
      </trkpt>
      <trkpt lat="43.52406" lon="1.50297">
        <ele>156.60000610352</ele>
        <time>2020-06-03T08:12:51.000Z</time>
      </trkpt>
      <trkpt lat="43.52366" lon="1.50276">
        <ele>157</ele>
        <time>2020-06-03T08:13:04.000Z</time>
      </trkpt>
      <trkpt lat="43.52361" lon="1.50292">
        <ele>157.39999389648</ele>
        <time>2020-06-03T08:13:07.000Z</time>
      </trkpt>
      <trkpt lat="43.52356" lon="1.50309">
        <ele>157.60000610352</ele>
        <time>2020-06-03T08:13:10.000Z</time>
      </trkpt>
      <trkpt lat="43.52338" lon="1.50327">
        <ele>157.60000610352</ele>
        <time>2020-06-03T08:13:15.000Z</time>
      </trkpt>
      <trkpt lat="43.5232" lon="1.50339">
        <ele>157.60000610352</ele>
        <time>2020-06-03T08:13:20.000Z</time>
      </trkpt>
      <trkpt lat="43.52309" lon="1.50348">
        <ele>157.60000610352</ele>
        <time>2020-06-03T08:13:23.000Z</time>
      </trkpt>
      <trkpt lat="43.52294" lon="1.50357">
        <ele>157.80000305176</ele>
        <time>2020-06-03T08:13:27.000Z</time>
      </trkpt>
      <trkpt lat="43.52246" lon="1.50394">
        <ele>157.80000305176</ele>
        <time>2020-06-03T08:13:39.000Z</time>
      </trkpt>
      <trkpt lat="43.52234" lon="1.50402">
        <ele>157.80000305176</ele>
        <time>2020-06-03T08:13:42.000Z</time>
      </trkpt>
      <trkpt lat="43.5223" lon="1.50406">
        <ele>157.80000305176</ele>
        <time>2020-06-03T08:13:43.000Z</time>
      </trkpt>
      <trkpt lat="43.52204" lon="1.50423">
        <ele>158</ele>
        <time>2020-06-03T08:13:50.000Z</time>
      </trkpt>
      <trkpt lat="43.52199" lon="1.50424">
        <ele>158</ele>
        <time>2020-06-03T08:13:51.000Z</time>
      </trkpt>
      <trkpt lat="43.52158" lon="1.50388">
        <ele>158.80000305176</ele>
        <time>2020-06-03T08:14:06.000Z</time>
      </trkpt>
      <trkpt lat="43.52141" lon="1.50354">
        <ele>159</ele>
        <time>2020-06-03T08:14:14.000Z</time>
      </trkpt>
      <trkpt lat="43.52111" lon="1.50287">
        <ele>159.80000305176</ele>
        <time>2020-06-03T08:14:28.000Z</time>
      </trkpt>
      <trkpt lat="43.52086" lon="1.50226">
        <ele>160.39999389648</ele>
        <time>2020-06-03T08:14:41.000Z</time>
      </trkpt>
      <trkpt lat="43.52061" lon="1.50158">
        <ele>161.19999694824</ele>
        <time>2020-06-03T08:14:56.000Z</time>
      </trkpt>
      <trkpt lat="43.52051" lon="1.50124">
        <ele>161.39999389648</ele>
        <time>2020-06-03T08:15:03.000Z</time>
      </trkpt>
      <trkpt lat="43.52044" lon="1.50098">
        <ele>161.60000610352</ele>
        <time>2020-06-03T08:15:08.000Z</time>
      </trkpt>
      <trkpt lat="43.52024" lon="1.50028">
        <ele>162</ele>
        <time>2020-06-03T08:15:22.000Z</time>
      </trkpt>
      <trkpt lat="43.52017" lon="1.50007">
        <ele>162.60000610352</ele>
        <time>2020-06-03T08:15:26.000Z</time>
      </trkpt>
      <trkpt lat="43.51993" lon="1.49936">
        <ele>163.39999389648</ele>
        <time>2020-06-03T08:15:40.000Z</time>
      </trkpt>
      <trkpt lat="43.51989" lon="1.49922">
        <ele>163.80000305176</ele>
        <time>2020-06-03T08:15:43.000Z</time>
      </trkpt>
      <trkpt lat="43.51976" lon="1.49882">
        <ele>165</ele>
        <time>2020-06-03T08:15:52.000Z</time>
      </trkpt>
      <trkpt lat="43.5197" lon="1.49871">
        <ele>165.60000610352</ele>
        <time>2020-06-03T08:15:56.000Z</time>
      </trkpt>
      <trkpt lat="43.51963" lon="1.49871">
        <ele>166</ele>
        <time>2020-06-03T08:15:59.000Z</time>
      </trkpt>
      <trkpt lat="43.51947" lon="1.49908">
        <ele>166.60000610352</ele>
        <time>2020-06-03T08:16:08.000Z</time>
      </trkpt>
      <trkpt lat="43.51944" lon="1.49984">
        <ele>165.60000610352</ele>
        <time>2020-06-03T08:16:20.000Z</time>
      </trkpt>
      <trkpt lat="43.51941" lon="1.50033">
        <ele>165.19999694824</ele>
        <time>2020-06-03T08:16:27.000Z</time>
      </trkpt>
      <trkpt lat="43.51916" lon="1.50075">
        <ele>165.19999694824</ele>
        <time>2020-06-03T08:16:35.000Z</time>
      </trkpt>
      <trkpt lat="43.51866" lon="1.5011">
        <ele>165</ele>
        <time>2020-06-03T08:16:46.000Z</time>
      </trkpt>
      <trkpt lat="43.51862" lon="1.50113">
        <ele>165</ele>
        <time>2020-06-03T08:16:47.000Z</time>
      </trkpt>
      <trkpt lat="43.51812" lon="1.50144">
        <ele>165.19999694824</ele>
        <time>2020-06-03T08:16:59.000Z</time>
      </trkpt>
      <trkpt lat="43.51764" lon="1.50181">
        <ele>165.80000305176</ele>
        <time>2020-06-03T08:17:11.000Z</time>
      </trkpt>
      <trkpt lat="43.51757" lon="1.50188">
        <ele>166</ele>
        <time>2020-06-03T08:17:13.000Z</time>
      </trkpt>
      <trkpt lat="43.51737" lon="1.50185">
        <ele>166</ele>
        <time>2020-06-03T08:17:18.000Z</time>
      </trkpt>
      <trkpt lat="43.51731" lon="1.50171">
        <ele>166</ele>
        <time>2020-06-03T08:17:21.000Z</time>
      </trkpt>
      <trkpt lat="43.51712" lon="1.50111">
        <ele>166</ele>
        <time>2020-06-03T08:17:33.000Z</time>
      </trkpt>
      <trkpt lat="43.51688" lon="1.50038">
        <ele>166.80000305176</ele>
        <time>2020-06-03T08:17:49.000Z</time>
      </trkpt>
      <trkpt lat="43.51685" lon="1.5003">
        <ele>167.19999694824</ele>
        <time>2020-06-03T08:17:51.000Z</time>
      </trkpt>
      <trkpt lat="43.51666" lon="1.4998">
        <ele>168.19999694824</ele>
        <time>2020-06-03T08:18:05.000Z</time>
      </trkpt>
      <trkpt lat="43.51668" lon="1.49953">
        <ele>169.19999694824</ele>
        <time>2020-06-03T08:18:14.000Z</time>
      </trkpt>
      <trkpt lat="43.51668" lon="1.49946">
        <ele>169.39999389648</ele>
        <time>2020-06-03T08:18:16.000Z</time>
      </trkpt>
      <trkpt lat="43.51667" lon="1.49939">
        <ele>169.60000610352</ele>
        <time>2020-06-03T08:18:18.000Z</time>
      </trkpt>
      <trkpt lat="43.51654" lon="1.4987">
        <ele>171</ele>
        <time>2020-06-03T08:18:35.000Z</time>
      </trkpt>
      <trkpt lat="43.51643" lon="1.49842">
        <ele>171.60000610352</ele>
        <time>2020-06-03T08:18:43.000Z</time>
      </trkpt>
      <trkpt lat="43.51643" lon="1.49836">
        <ele>172.39999389648</ele>
        <time>2020-06-03T08:18:49.000Z</time>
      </trkpt>
      <trkpt lat="43.51646" lon="1.49833">
        <ele>173</ele>
        <time>2020-06-03T08:18:53.000Z</time>
      </trkpt>
      <trkpt lat="43.51684" lon="1.49806">
        <ele>172.60000610352</ele>
        <time>2020-06-03T08:19:07.000Z</time>
      </trkpt>
      <trkpt lat="43.51682" lon="1.49792">
        <ele>172.60000610352</ele>
        <time>2020-06-03T08:19:11.000Z</time>
      </trkpt>
      <trkpt lat="43.51688" lon="1.49759">
        <ele>173.80000305176</ele>
        <time>2020-06-03T08:19:21.000Z</time>
      </trkpt>
      <trkpt lat="43.51702" lon="1.49721">
        <ele>174.80000305176</ele>
        <time>2020-06-03T08:19:34.000Z</time>
      </trkpt>
      <trkpt lat="43.51711" lon="1.49686">
        <ele>176</ele>
        <time>2020-06-03T08:19:48.000Z</time>
      </trkpt>
      <trkpt lat="43.51724" lon="1.49642">
        <ele>177.19999694824</ele>
        <time>2020-06-03T08:20:04.000Z</time>
      </trkpt>
      <trkpt lat="43.51724" lon="1.49639">
        <ele>177.39999389648</ele>
        <time>2020-06-03T08:20:07.000Z</time>
      </trkpt>
      <trkpt lat="43.51724" lon="1.49639">
        <ele>177.39999389648</ele>
        <time>2020-06-03T08:20:08.000Z</time>
      </trkpt>
      <trkpt lat="43.51725" lon="1.49637">
        <ele>177.80000305176</ele>
        <time>2020-06-03T08:20:10.000Z</time>
      </trkpt>
      <trkpt lat="43.51727" lon="1.49631">
        <ele>178.39999389648</ele>
        <time>2020-06-03T08:20:15.000Z</time>
      </trkpt>
      <trkpt lat="43.51731" lon="1.49622">
        <ele>178.60000610352</ele>
        <time>2020-06-03T08:20:22.000Z</time>
      </trkpt>
      <trkpt lat="43.51731" lon="1.49619">
        <ele>178.60000610352</ele>
        <time>2020-06-03T08:20:24.000Z</time>
      </trkpt>
      <trkpt lat="43.51733" lon="1.496">
        <ele>179.39999389648</ele>
        <time>2020-06-03T08:20:35.000Z</time>
      </trkpt>
      <trkpt lat="43.51741" lon="1.49585">
        <ele>180</ele>
        <time>2020-06-03T08:20:47.000Z</time>
      </trkpt>
      <trkpt lat="43.51741" lon="1.49584">
        <ele>180.80000305176</ele>
        <time>2020-06-03T08:20:54.000Z</time>
      </trkpt>
      <trkpt lat="43.51771" lon="1.49593">
        <ele>180.60000610352</ele>
        <time>2020-06-03T08:21:05.000Z</time>
      </trkpt>
      <trkpt lat="43.51786" lon="1.49585">
        <ele>180.19999694824</ele>
        <time>2020-06-03T08:21:10.000Z</time>
      </trkpt>
      <trkpt lat="43.51818" lon="1.49547">
        <ele>182</ele>
        <time>2020-06-03T08:21:24.000Z</time>
      </trkpt>
      <trkpt lat="43.51829" lon="1.49532">
        <ele>183</ele>
        <time>2020-06-03T08:21:28.000Z</time>
      </trkpt>
      <trkpt lat="43.51875" lon="1.49491">
        <ele>183.60000610352</ele>
        <time>2020-06-03T08:21:39.000Z</time>
      </trkpt>
      <trkpt lat="43.51926" lon="1.49464">
        <ele>183</ele>
        <time>2020-06-03T08:21:50.000Z</time>
      </trkpt>
      <trkpt lat="43.51977" lon="1.4943">
        <ele>182.80000305176</ele>
        <time>2020-06-03T08:22:02.000Z</time>
      </trkpt>
      <trkpt lat="43.52019" lon="1.49383">
        <ele>183.80000305176</ele>
        <time>2020-06-03T08:22:15.000Z</time>
      </trkpt>
      <trkpt lat="43.52028" lon="1.49373">
        <ele>183.80000305176</ele>
        <time>2020-06-03T08:22:18.000Z</time>
      </trkpt>
      <trkpt lat="43.52065" lon="1.49326">
        <ele>185</ele>
        <time>2020-06-03T08:22:32.000Z</time>
      </trkpt>
      <trkpt lat="43.52081" lon="1.49293">
        <ele>186</ele>
        <time>2020-06-03T08:22:40.000Z</time>
      </trkpt>
      <trkpt lat="43.52092" lon="1.49262">
        <ele>187.19999694824</ele>
        <time>2020-06-03T08:22:47.000Z</time>
      </trkpt>
      <trkpt lat="43.52104" lon="1.49233">
        <ele>188.19999694824</ele>
        <time>2020-06-03T08:22:54.000Z</time>
      </trkpt>
      <trkpt lat="43.52117" lon="1.49204">
        <ele>189.19999694824</ele>
        <time>2020-06-03T08:23:01.000Z</time>
      </trkpt>
      <trkpt lat="43.52136" lon="1.49173">
        <ele>190.39999389648</ele>
        <time>2020-06-03T08:23:09.000Z</time>
      </trkpt>
      <trkpt lat="43.52168" lon="1.49123">
        <ele>191.39999389648</ele>
        <time>2020-06-03T08:23:23.000Z</time>
      </trkpt>
      <trkpt lat="43.52196" lon="1.49085">
        <ele>192.39999389648</ele>
        <time>2020-06-03T08:23:35.000Z</time>
      </trkpt>
      <trkpt lat="43.52218" lon="1.49053">
        <ele>193.39999389648</ele>
        <time>2020-06-03T08:23:43.000Z</time>
      </trkpt>
      <trkpt lat="43.52255" lon="1.49021">
        <ele>194.60000610352</ele>
        <time>2020-06-03T08:23:55.000Z</time>
      </trkpt>
      <trkpt lat="43.52295" lon="1.4898">
        <ele>195.60000610352</ele>
        <time>2020-06-03T08:24:08.000Z</time>
      </trkpt>
      <trkpt lat="43.52324" lon="1.4894">
        <ele>196.80000305176</ele>
        <time>2020-06-03T08:24:19.000Z</time>
      </trkpt>
      <trkpt lat="43.52362" lon="1.48886">
        <ele>197.39999389648</ele>
        <time>2020-06-03T08:24:33.000Z</time>
      </trkpt>
      <trkpt lat="43.52375" lon="1.48868">
        <ele>198</ele>
        <time>2020-06-03T08:24:38.000Z</time>
      </trkpt>
      <trkpt lat="43.52401" lon="1.48826">
        <ele>199.19999694824</ele>
        <time>2020-06-03T08:24:50.000Z</time>
      </trkpt>
      <trkpt lat="43.52428" lon="1.48765">
        <ele>199.80000305176</ele>
        <time>2020-06-03T08:25:04.000Z</time>
      </trkpt>
      <trkpt lat="43.52443" lon="1.48729">
        <ele>200.19999694824</ele>
        <time>2020-06-03T08:25:11.000Z</time>
      </trkpt>
      <trkpt lat="43.52467" lon="1.48672">
        <ele>201</ele>
        <time>2020-06-03T08:25:23.000Z</time>
      </trkpt>
      <trkpt lat="43.52473" lon="1.48665">
        <ele>201.39999389648</ele>
        <time>2020-06-03T08:25:25.000Z</time>
      </trkpt>
      <trkpt lat="43.5251" lon="1.4866">
        <ele>201.39999389648</ele>
        <time>2020-06-03T08:25:33.000Z</time>
      </trkpt>
      <trkpt lat="43.5255" lon="1.48673">
        <ele>200.39999389648</ele>
        <time>2020-06-03T08:25:41.000Z</time>
      </trkpt>
      <trkpt lat="43.52554" lon="1.48673">
        <ele>200.19999694824</ele>
        <time>2020-06-03T08:25:42.000Z</time>
      </trkpt>
      <trkpt lat="43.52567" lon="1.48657">
        <ele>199.60000610352</ele>
        <time>2020-06-03T08:25:46.000Z</time>
      </trkpt>
      <trkpt lat="43.52579" lon="1.48631">
        <ele>199.19999694824</ele>
        <time>2020-06-03T08:25:51.000Z</time>
      </trkpt>
      <trkpt lat="43.52585" lon="1.48592">
        <ele>198.39999389648</ele>
        <time>2020-06-03T08:25:57.000Z</time>
      </trkpt>
      <trkpt lat="43.52586" lon="1.48585">
        <ele>198.19999694824</ele>
        <time>2020-06-03T08:25:58.000Z</time>
      </trkpt>
      <trkpt lat="43.52591" lon="1.48566">
        <ele>198</ele>
        <time>2020-06-03T08:26:01.000Z</time>
      </trkpt>
      <trkpt lat="43.52602" lon="1.48535">
        <ele>197.80000305176</ele>
        <time>2020-06-03T08:26:06.000Z</time>
      </trkpt>
      <trkpt lat="43.52627" lon="1.48463">
        <ele>197.80000305176</ele>
        <time>2020-06-03T08:26:18.000Z</time>
      </trkpt>
      <trkpt lat="43.52634" lon="1.48435">
        <ele>198</ele>
        <time>2020-06-03T08:26:23.000Z</time>
      </trkpt>
      <trkpt lat="43.52641" lon="1.48395">
        <ele>199.19999694824</ele>
        <time>2020-06-03T08:26:30.000Z</time>
      </trkpt>
      <trkpt lat="43.52672" lon="1.48333">
        <ele>200</ele>
        <time>2020-06-03T08:26:43.000Z</time>
      </trkpt>
      <trkpt lat="43.52712" lon="1.4828">
        <ele>199.60000610352</ele>
        <time>2020-06-03T08:26:54.000Z</time>
      </trkpt>
      <trkpt lat="43.52745" lon="1.48243">
        <ele>198.19999694824</ele>
        <time>2020-06-03T08:27:01.000Z</time>
      </trkpt>
      <trkpt lat="43.52788" lon="1.48194">
        <ele>197.39999389648</ele>
        <time>2020-06-03T08:27:11.000Z</time>
      </trkpt>
      <trkpt lat="43.52804" lon="1.48178">
        <ele>197.19999694824</ele>
        <time>2020-06-03T08:27:15.000Z</time>
      </trkpt>
      <trkpt lat="43.5284" lon="1.48129">
        <ele>197.19999694824</ele>
        <time>2020-06-03T08:27:26.000Z</time>
      </trkpt>
      <trkpt lat="43.52869" lon="1.48069">
        <ele>198</ele>
        <time>2020-06-03T08:27:38.000Z</time>
      </trkpt>
      <trkpt lat="43.52871" lon="1.48063">
        <ele>198.19999694824</ele>
        <time>2020-06-03T08:27:39.000Z</time>
      </trkpt>
      <trkpt lat="43.52891" lon="1.4799">
        <ele>199.19999694824</ele>
        <time>2020-06-03T08:27:51.000Z</time>
      </trkpt>
      <trkpt lat="43.52893" lon="1.47984">
        <ele>199.19999694824</ele>
        <time>2020-06-03T08:27:52.000Z</time>
      </trkpt>
      <trkpt lat="43.52924" lon="1.47924">
        <ele>200</ele>
        <time>2020-06-03T08:28:04.000Z</time>
      </trkpt>
      <trkpt lat="43.52931" lon="1.47916">
        <ele>200.39999389648</ele>
        <time>2020-06-03T08:28:06.000Z</time>
      </trkpt>
      <trkpt lat="43.52958" lon="1.47927">
        <ele>201.39999389648</ele>
        <time>2020-06-03T08:28:15.000Z</time>
      </trkpt>
      <trkpt lat="43.52961" lon="1.47932">
        <ele>201.80000305176</ele>
        <time>2020-06-03T08:28:16.000Z</time>
      </trkpt>
      <trkpt lat="43.52984" lon="1.47968">
        <ele>202</ele>
        <time>2020-06-03T08:28:28.000Z</time>
      </trkpt>
      <trkpt lat="43.53" lon="1.47949">
        <ele>202</ele>
        <time>2020-06-03T08:28:37.000Z</time>
      </trkpt>
      <trkpt lat="43.53036" lon="1.47888">
        <ele>202</ele>
        <time>2020-06-03T08:28:51.000Z</time>
      </trkpt>
      <trkpt lat="43.53082" lon="1.47847">
        <ele>202.39999389648</ele>
        <time>2020-06-03T08:29:04.000Z</time>
      </trkpt>
      <trkpt lat="43.53123" lon="1.47791">
        <ele>202.80000305176</ele>
        <time>2020-06-03T08:29:17.000Z</time>
      </trkpt>
      <trkpt lat="43.5316" lon="1.47737">
        <ele>203.39999389648</ele>
        <time>2020-06-03T08:29:31.000Z</time>
      </trkpt>
      <trkpt lat="43.53187" lon="1.47712">
        <ele>204.60000610352</ele>
        <time>2020-06-03T08:29:41.000Z</time>
      </trkpt>
      <trkpt lat="43.532" lon="1.4769">
        <ele>204.80000305176</ele>
        <time>2020-06-03T08:29:47.000Z</time>
      </trkpt>
      <trkpt lat="43.53235" lon="1.47639">
        <ele>205.60000610352</ele>
        <time>2020-06-03T08:29:59.000Z</time>
      </trkpt>
      <trkpt lat="43.53274" lon="1.47588">
        <ele>206</ele>
        <time>2020-06-03T08:30:11.000Z</time>
      </trkpt>
      <trkpt lat="43.53307" lon="1.47541">
        <ele>206.60000610352</ele>
        <time>2020-06-03T08:30:22.000Z</time>
      </trkpt>
      <trkpt lat="43.53343" lon="1.47497">
        <ele>207.60000610352</ele>
        <time>2020-06-03T08:30:33.000Z</time>
      </trkpt>
      <trkpt lat="43.53388" lon="1.47451">
        <ele>207.80000305176</ele>
        <time>2020-06-03T08:30:46.000Z</time>
      </trkpt>
      <trkpt lat="43.53437" lon="1.4742">
        <ele>208.39999389648</ele>
        <time>2020-06-03T08:31:02.000Z</time>
      </trkpt>
      <trkpt lat="43.53487" lon="1.47389">
        <ele>208.39999389648</ele>
        <time>2020-06-03T08:31:15.000Z</time>
      </trkpt>
      <trkpt lat="43.53522" lon="1.47353">
        <ele>208.60000610352</ele>
        <time>2020-06-03T08:31:26.000Z</time>
      </trkpt>
      <trkpt lat="43.53559" lon="1.47297">
        <ele>208.19999694824</ele>
        <time>2020-06-03T08:31:38.000Z</time>
      </trkpt>
      <trkpt lat="43.53588" lon="1.47253">
        <ele>206.60000610352</ele>
        <time>2020-06-03T08:31:46.000Z</time>
      </trkpt>
      <trkpt lat="43.53601" lon="1.47222">
        <ele>205.80000305176</ele>
        <time>2020-06-03T08:31:57.000Z</time>
      </trkpt>
      <trkpt lat="43.53591" lon="1.47203">
        <ele>206.19999694824</ele>
        <time>2020-06-03T08:32:03.000Z</time>
      </trkpt>
      <trkpt lat="43.53563" lon="1.47165">
        <ele>207.80000305176</ele>
        <time>2020-06-03T08:32:17.000Z</time>
      </trkpt>
      <trkpt lat="43.53554" lon="1.47151">
        <ele>209</ele>
        <time>2020-06-03T08:32:21.000Z</time>
      </trkpt>
      <trkpt lat="43.53538" lon="1.47134">
        <ele>210.19999694824</ele>
        <time>2020-06-03T08:32:27.000Z</time>
      </trkpt>
      <trkpt lat="43.53521" lon="1.47113">
        <ele>211.19999694824</ele>
        <time>2020-06-03T08:32:33.000Z</time>
      </trkpt>
      <trkpt lat="43.53511" lon="1.47099">
        <ele>212.39999389648</ele>
        <time>2020-06-03T08:32:37.000Z</time>
      </trkpt>
      <trkpt lat="43.53496" lon="1.47078">
        <ele>213.39999389648</ele>
        <time>2020-06-03T08:32:44.000Z</time>
      </trkpt>
      <trkpt lat="43.53482" lon="1.47056">
        <ele>214.80000305176</ele>
        <time>2020-06-03T08:32:52.000Z</time>
      </trkpt>
      <trkpt lat="43.53479" lon="1.47029">
        <ele>215.80000305176</ele>
        <time>2020-06-03T08:32:58.000Z</time>
      </trkpt>
      <trkpt lat="43.53483" lon="1.46992">
        <ele>216.80000305176</ele>
        <time>2020-06-03T08:33:07.000Z</time>
      </trkpt>
      <trkpt lat="43.53489" lon="1.4698">
        <ele>217.19999694824</ele>
        <time>2020-06-03T08:33:12.000Z</time>
      </trkpt>
      <trkpt lat="43.5349" lon="1.46978">
        <ele>218.39999389648</ele>
        <time>2020-06-03T08:33:39.000Z</time>
      </trkpt>
      <trkpt lat="43.53517" lon="1.46937">
        <ele>218.19999694824</ele>
        <time>2020-06-03T08:33:54.000Z</time>
      </trkpt>
      <trkpt lat="43.5355" lon="1.4688">
        <ele>218.39999389648</ele>
        <time>2020-06-03T08:34:08.000Z</time>
      </trkpt>
      <trkpt lat="43.53582" lon="1.46819">
        <ele>218.60000610352</ele>
        <time>2020-06-03T08:34:23.000Z</time>
      </trkpt>
      <trkpt lat="43.53588" lon="1.4681">
        <ele>218.80000305176</ele>
        <time>2020-06-03T08:34:26.000Z</time>
      </trkpt>
      <trkpt lat="43.53601" lon="1.46817">
        <ele>219</ele>
        <time>2020-06-03T08:34:31.000Z</time>
      </trkpt>
      <trkpt lat="43.53603" lon="1.46821">
        <ele>219</ele>
        <time>2020-06-03T08:34:32.000Z</time>
      </trkpt>
      <trkpt lat="43.53621" lon="1.46833">
        <ele>219</ele>
        <time>2020-06-03T08:34:36.000Z</time>
      </trkpt>
      <trkpt lat="43.53636" lon="1.46841">
        <ele>219</ele>
        <time>2020-06-03T08:34:39.000Z</time>
      </trkpt>
      <trkpt lat="43.53661" lon="1.46839">
        <ele>216.80000305176</ele>
        <time>2020-06-03T08:34:43.000Z</time>
      </trkpt>
      <trkpt lat="43.53672" lon="1.46839">
        <ele>215.80000305176</ele>
        <time>2020-06-03T08:34:45.000Z</time>
      </trkpt>
      <trkpt lat="43.53677" lon="1.46836">
        <ele>215.19999694824</ele>
        <time>2020-06-03T08:34:46.000Z</time>
      </trkpt>
      <trkpt lat="43.53685" lon="1.46827">
        <ele>214</ele>
        <time>2020-06-03T08:34:48.000Z</time>
      </trkpt>
      <trkpt lat="43.53691" lon="1.46816">
        <ele>213.60000610352</ele>
        <time>2020-06-03T08:34:50.000Z</time>
      </trkpt>
      <trkpt lat="43.53724" lon="1.46753">
        <ele>213.80000305176</ele>
        <time>2020-06-03T08:35:04.000Z</time>
      </trkpt>
      <trkpt lat="43.5375" lon="1.46715">
        <ele>215.19999694824</ele>
        <time>2020-06-03T08:35:15.000Z</time>
      </trkpt>
      <trkpt lat="43.53752" lon="1.46708">
        <ele>215.80000305176</ele>
        <time>2020-06-03T08:35:19.000Z</time>
      </trkpt>
      <trkpt lat="43.53759" lon="1.46698">
        <ele>216.19999694824</ele>
        <time>2020-06-03T08:35:23.000Z</time>
      </trkpt>
      <trkpt lat="43.53768" lon="1.4669">
        <ele>216.19999694824</ele>
        <time>2020-06-03T08:35:26.000Z</time>
      </trkpt>
      <trkpt lat="43.53807" lon="1.46637">
        <ele>217</ele>
        <time>2020-06-03T08:35:41.000Z</time>
      </trkpt>
      <trkpt lat="43.53817" lon="1.46622">
        <ele>217.39999389648</ele>
        <time>2020-06-03T08:35:45.000Z</time>
      </trkpt>
      <trkpt lat="43.5383" lon="1.46603">
        <ele>218.60000610352</ele>
        <time>2020-06-03T08:35:50.000Z</time>
      </trkpt>
      <trkpt lat="43.5385" lon="1.46574">
        <ele>219.60000610352</ele>
        <time>2020-06-03T08:35:58.000Z</time>
      </trkpt>
      <trkpt lat="43.53862" lon="1.46554">
        <ele>220.60000610352</ele>
        <time>2020-06-03T08:36:03.000Z</time>
      </trkpt>
      <trkpt lat="43.53883" lon="1.4651">
        <ele>221.80000305176</ele>
        <time>2020-06-03T08:36:13.000Z</time>
      </trkpt>
      <trkpt lat="43.53892" lon="1.46493">
        <ele>223</ele>
        <time>2020-06-03T08:36:17.000Z</time>
      </trkpt>
      <trkpt lat="43.53897" lon="1.46484">
        <ele>223</ele>
        <time>2020-06-03T08:36:19.000Z</time>
      </trkpt>
      <trkpt lat="43.53925" lon="1.46435">
        <ele>223.80000305176</ele>
        <time>2020-06-03T08:36:30.000Z</time>
      </trkpt>
      <trkpt lat="43.53927" lon="1.46431">
        <ele>224</ele>
        <time>2020-06-03T08:36:31.000Z</time>
      </trkpt>
      <trkpt lat="43.53945" lon="1.46405">
        <ele>225.19999694824</ele>
        <time>2020-06-03T08:36:37.000Z</time>
      </trkpt>
      <trkpt lat="43.53958" lon="1.46384">
        <ele>225.39999389648</ele>
        <time>2020-06-03T08:36:42.000Z</time>
      </trkpt>
      <trkpt lat="43.53979" lon="1.46358">
        <ele>226.39999389648</ele>
        <time>2020-06-03T08:36:49.000Z</time>
      </trkpt>
      <trkpt lat="43.5401" lon="1.46317">
        <ele>227.60000610352</ele>
        <time>2020-06-03T08:37:00.000Z</time>
      </trkpt>
      <trkpt lat="43.54039" lon="1.46295">
        <ele>228.60000610352</ele>
        <time>2020-06-03T08:37:10.000Z</time>
      </trkpt>
      <trkpt lat="43.5406" lon="1.46264">
        <ele>229.60000610352</ele>
        <time>2020-06-03T08:37:19.000Z</time>
      </trkpt>
      <trkpt lat="43.54077" lon="1.46239">
        <ele>230</ele>
        <time>2020-06-03T08:37:26.000Z</time>
      </trkpt>
      <trkpt lat="43.5409" lon="1.46215">
        <ele>230.19999694824</ele>
        <time>2020-06-03T08:37:31.000Z</time>
      </trkpt>
      <trkpt lat="43.54098" lon="1.46201">
        <ele>230.60000610352</ele>
        <time>2020-06-03T08:37:34.000Z</time>
      </trkpt>
      <trkpt lat="43.54105" lon="1.46187">
        <ele>231</ele>
        <time>2020-06-03T08:37:37.000Z</time>
      </trkpt>
      <trkpt lat="43.54123" lon="1.46155">
        <ele>231.60000610352</ele>
        <time>2020-06-03T08:37:44.000Z</time>
      </trkpt>
      <trkpt lat="43.54145" lon="1.46111">
        <ele>232.60000610352</ele>
        <time>2020-06-03T08:37:54.000Z</time>
      </trkpt>
      <trkpt lat="43.54157" lon="1.46087">
        <ele>233.60000610352</ele>
        <time>2020-06-03T08:37:59.000Z</time>
      </trkpt>
      <trkpt lat="43.54185" lon="1.46024">
        <ele>234.80000305176</ele>
        <time>2020-06-03T08:38:12.000Z</time>
      </trkpt>
      <trkpt lat="43.54202" lon="1.4598">
        <ele>235.80000305176</ele>
        <time>2020-06-03T08:38:20.000Z</time>
      </trkpt>
      <trkpt lat="43.54221" lon="1.45931">
        <ele>236.19999694824</ele>
        <time>2020-06-03T08:38:29.000Z</time>
      </trkpt>
      <trkpt lat="43.5423" lon="1.4591">
        <ele>236.19999694824</ele>
        <time>2020-06-03T08:38:32.000Z</time>
      </trkpt>
      <trkpt lat="43.54258" lon="1.45853">
        <ele>235.19999694824</ele>
        <time>2020-06-03T08:38:38.000Z</time>
      </trkpt>
      <trkpt lat="43.54277" lon="1.45823">
        <ele>234.19999694824</ele>
        <time>2020-06-03T08:38:41.000Z</time>
      </trkpt>
      <trkpt lat="43.5429" lon="1.45804">
        <ele>232.60000610352</ele>
        <time>2020-06-03T08:38:43.000Z</time>
      </trkpt>
      <trkpt lat="43.54302" lon="1.45786">
        <ele>231.39999389648</ele>
        <time>2020-06-03T08:38:45.000Z</time>
      </trkpt>
      <trkpt lat="43.54342" lon="1.45726">
        <ele>231</ele>
        <time>2020-06-03T08:38:52.000Z</time>
      </trkpt>
      <trkpt lat="43.54378" lon="1.45665">
        <ele>231.60000610352</ele>
        <time>2020-06-03T08:38:59.000Z</time>
      </trkpt>
      <trkpt lat="43.54405" lon="1.45628">
        <ele>232.39999389648</ele>
        <time>2020-06-03T08:39:05.000Z</time>
      </trkpt>
      <trkpt lat="43.54422" lon="1.45611">
        <ele>233.60000610352</ele>
        <time>2020-06-03T08:39:10.000Z</time>
      </trkpt>
      <trkpt lat="43.54425" lon="1.4561">
        <ele>233.80000305176</ele>
        <time>2020-06-03T08:39:11.000Z</time>
      </trkpt>
      <trkpt lat="43.54431" lon="1.45613">
        <ele>234.60000610352</ele>
        <time>2020-06-03T08:39:13.000Z</time>
      </trkpt>
      <trkpt lat="43.54433" lon="1.45622">
        <ele>235.80000305176</ele>
        <time>2020-06-03T08:39:15.000Z</time>
      </trkpt>
      <trkpt lat="43.54433" lon="1.45628">
        <ele>236.19999694824</ele>
        <time>2020-06-03T08:39:16.000Z</time>
      </trkpt>
      <trkpt lat="43.54433" lon="1.45633">
        <ele>236.60000610352</ele>
        <time>2020-06-03T08:39:17.000Z</time>
      </trkpt>
      <trkpt lat="43.54432" lon="1.45644">
        <ele>237</ele>
        <time>2020-06-03T08:39:19.000Z</time>
      </trkpt>
      <trkpt lat="43.54426" lon="1.45677">
        <ele>237.60000610352</ele>
        <time>2020-06-03T08:39:25.000Z</time>
      </trkpt>
      <trkpt lat="43.54406" lon="1.45715">
        <ele>237.60000610352</ele>
        <time>2020-06-03T08:39:31.000Z</time>
      </trkpt>
      <trkpt lat="43.54378" lon="1.45743">
        <ele>235.60000610352</ele>
        <time>2020-06-03T08:39:38.000Z</time>
      </trkpt>
      <trkpt lat="43.54366" lon="1.45754">
        <ele>234.60000610352</ele>
        <time>2020-06-03T08:39:41.000Z</time>
      </trkpt>
      <trkpt lat="43.54363" lon="1.45759">
        <ele>234.39999389648</ele>
        <time>2020-06-03T08:39:42.000Z</time>
      </trkpt>
      <trkpt lat="43.54356" lon="1.4577">
        <ele>233.19999694824</ele>
        <time>2020-06-03T08:39:44.000Z</time>
      </trkpt>
      <trkpt lat="43.54331" lon="1.45811">
        <ele>232</ele>
        <time>2020-06-03T08:39:54.000Z</time>
      </trkpt>
      <trkpt lat="43.5433" lon="1.45812">
        <ele>232</ele>
        <time>2020-06-03T08:39:55.000Z</time>
      </trkpt>
      <trkpt lat="43.54328" lon="1.45814">
        <ele>231.80000305176</ele>
        <time>2020-06-03T08:40:38.000Z</time>
      </trkpt>
      <trkpt lat="43.54325" lon="1.45814">
        <ele>231.80000305176</ele>
        <time>2020-06-03T08:40:41.000Z</time>
      </trkpt>
      <trkpt lat="43.54322" lon="1.45813">
        <ele>231.80000305176</ele>
        <time>2020-06-03T08:40:44.000Z</time>
      </trkpt>
      <trkpt lat="43.54318" lon="1.45814">
        <ele>230.80000305176</ele>
        <time>2020-06-03T08:40:54.000Z</time>
      </trkpt>
      <trkpt lat="43.54314" lon="1.4582">
        <ele>230.80000305176</ele>
        <time>2020-06-03T08:41:00.000Z</time>
      </trkpt>
    </trkseg>
  </trk>
</gpx>